Observation data for Clyde on 02/21/2019      Previous  Date  Next       Current Mesonet Observations  Soil Data  Daily Summary Page  Observations in Plain Language
KCL2 210600Z 14008KT 07/M05 A299 RMK A01 T00671054  RH  042%=      5-min Rain = 0
KCL2 210601Z 14008KT 07/M05 A299 RMK A01 T00671054  RH  042%=      5-min Rain = 0
KCL2 210602Z 15009KT 07/M05 A299 RMK A01 T00681054  RH  042%=      5-min Rain = 0
KCL2 210603Z 15008KT 07/M05 A299 RMK A01 T00681054  RH  042%=      5-min Rain = 0
KCL2 210604Z 15008KT 07/M05 A299 RMK A01 T00681054  RH  041%=      5-min Rain = 0
KCL2 210605Z 15008KT 07/M05 A299 RMK A01 T00681054  RH  041%=      5-min Rain = 0
KCL2 210606Z 15008KT 07/M05 A299 RMK A01 T00691054  RH  041%=      5-min Rain = 0
KCL2 210607Z 15008KT 07/M05 A299 RMK A01 T00691054  RH  041%=      5-min Rain = 0
KCL2 210608Z 15009KT 07/M05 A299 RMK A01 T00691053  RH  042%=      5-min Rain = 0
KCL2 210609Z 15008KT 07/M05 A299 RMK A01 T00691053  RH  042%=      5-min Rain = 0
KCL2 210610Z 15009KT 07/M05 A299 RMK A01 T00691053  RH  042%=      5-min Rain = 0
KCL2 210611Z 15008KT 07/M05 A299 RMK A01 T00691053  RH  041%=      5-min Rain = 0
KCL2 210612Z 15008KT 07/M05 A299 RMK A01 T00691053  RH  041%=      5-min Rain = 0
KCL2 210613Z 15009KT 07/M05 A299 RMK A01 T00691053  RH  042%=      5-min Rain = 0
KCL2 210614Z 15009KT 07/M05 A299 RMK A01 T00691052  RH  042%=      5-min Rain = 0
KCL2 210615Z 15009KT 07/M05 A2991 RMK A01 T00691052  RH  042%=      5-min Rain = 0
KCL2 210616Z 15008KT 07/M05 A2991 RMK A01 T00691052  RH  042%=      5-min Rain = 0
KCL2 210617Z 16008KT 07/M05 A2991 RMK A01 T00701052  RH  042%=      5-min Rain = 0
KCL2 210618Z 16009KT 07/M05 A2991 RMK A01 T00701052  RH  042%=      5-min Rain = 0
KCL2 210619Z 15009KT 07/M05 A2991 RMK A01 T00691051  RH  042%=      5-min Rain = 0
KCL2 210620Z 16009KT 07/M05 A2991 RMK A01 T00681052  RH  042%=      5-min Rain = 0
KCL2 210621Z 16009KT 07/M05 A2991 RMK A01 T00681052  RH  042%=      5-min Rain = 0
KCL2 210622Z 15009KT 07/M05 A2991 RMK A01 T00681052  RH  042%=      5-min Rain = 0
KCL2 210623Z 16009KT 07/M05 A2991 RMK A01 T00681051  RH  042%=      5-min Rain = 0
KCL2 210624Z 16009KT 07/M05 A2991 RMK A01 T00671052  RH  042%=      5-min Rain = 0
KCL2 210625Z 16009KT 07/M05 A2991 RMK A01 T00671052  RH  042%=      5-min Rain = 0
KCL2 210626Z 16010KT 07/M05 A2991 RMK A01 T00671052  RH  043%=      5-min Rain = 0
KCL2 210627Z 16009KT 07/M05 A2991 RMK A01 T00661052  RH  043%=      5-min Rain = 0
KCL2 210628Z 16010KT 07/M05 A2991 RMK A01 T00661052  RH  043%=      5-min Rain = 0
KCL2 210629Z 16010KT 07/M05 A2991 RMK A01 T00661051  RH  043%=      5-min Rain = 0
KCL2 210630Z 16009KT 07/M05 A2991 RMK A01 T00661051  RH  043%=      5-min Rain = 0
KCL2 210631Z 16010KT 07/M05 A2991 RMK A01 T00661051  RH  043%=      5-min Rain = 0
KCL2 210632Z 16008KT 07/M05 A2991 RMK A01 T00661051  RH  043%=      5-min Rain = 0
KCL2 210633Z 16009KT 07/M05 A2991 RMK A01 T00651050  RH  043%=      5-min Rain = 0
KCL2 210634Z 16009KT 07/M05 A2991 RMK A01 T00651050  RH  043%=      5-min Rain = 0
KCL2 210635Z 16009KT 07/M05 A2991 RMK A01 T00651050  RH  043%=      5-min Rain = 0
KCL2 210636Z 16010KT 07/M05 A2991 RMK A01 T00661050  RH  043%=      5-min Rain = 0
KCL2 210637Z 16009KT 07/M05 A2991 RMK A01 T00661050  RH  043%=      5-min Rain = 0
KCL2 210638Z 16010KT 07/M05 A2991 RMK A01 T00661050  RH  044%=      5-min Rain = 0
KCL2 210639Z 17009KT 07/M05 A2992 RMK A01 T00661049  RH  044%=      5-min Rain = 0
KCL2 210640Z 16009KT 07/M05 A2992 RMK A01 T00661048  RH  044%=      5-min Rain = 0
KCL2 210641Z 16009KT 07/M05 A2992 RMK A01 T00661048  RH  044%=      5-min Rain = 0
KCL2 210642Z 16010KT 07/M05 A2992 RMK A01 T00651048  RH  044%=      5-min Rain = 0
KCL2 210643Z 16009KT 07/M05 A2992 RMK A01 T00661047  RH  044%=      5-min Rain = 0
KCL2 210644Z 16010KT 07/M05 A2992 RMK A01 T00661047  RH  044%=      5-min Rain = 0
KCL2 210645Z 16011KT 07/M05 A2992 RMK A01 T00661047  RH  044%=      5-min Rain = 0
KCL2 210646Z 16010KT 07/M05 A2992 RMK A01 T00661046  RH  044%=      5-min Rain = 0
KCL2 210647Z 16010KT 07/M05 A2992 RMK A01 T00671046  RH  045%=      5-min Rain = 0
KCL2 210648Z 16010KT 07/M05 A2992 RMK A01 T00671045  RH  045%=      5-min Rain = 0
KCL2 210649Z 16010KT 07/M05 A2992 RMK A01 T00661045  RH  045%=      5-min Rain = 0
KCL2 210650Z 15009KT 07/M05 A2992 RMK A01 T00661045  RH  045%=      5-min Rain = 0
KCL2 210651Z 15009KT 07/M05 A2992 RMK A01 T00671045  RH  045%=      5-min Rain = 0
KCL2 210652Z 15010KT 07/M04 A2992 RMK A01 T00671044  RH  045%=      5-min Rain = 0
KCL2 210653Z 15010KT 07/M04 A2992 RMK A01 T00671044  RH  045%=      5-min Rain = 0
KCL2 210654Z 15009KT 07/M04 A2992 RMK A01 T00671044  RH  045%=      5-min Rain = 0
KCL2 210655Z 15008KT 07/M04 A2992 RMK A01 T00681044  RH  045%=      5-min Rain = 0
KCL2 210656Z 15009KT 07/M04 A2992 RMK A01 T00671044  RH  045%=      5-min Rain = 0
KCL2 210657Z 15008KT 07/M04 A2992 RMK A01 T00671043  RH  045%=      5-min Rain = 0
KCL2 210658Z 15008KT 07/M04 A2992 RMK A01 T00671043  RH  045%=      5-min Rain = 0
KCL2 210659Z 15008KT 07/M04 A2992 RMK A01 T00671043  RH  045%=      5-min Rain = 0
KCL2 210700Z 15008KT 07/M04 A2992 RMK A01 T00671043  RH  046%=      5-min Rain = 0
KCL2 210701Z 15010KT 07/M04 A2992 RMK A01 T00671043  RH  046%=      5-min Rain = 0
KCL2 210702Z 15011KT 07/M04 A2992 RMK A01 T00671042  RH  046%=      5-min Rain = 0
KCL2 210703Z 15011KT 07/M04 A2992 RMK A01 T00681041  RH  046%=      5-min Rain = 0
KCL2 210704Z 15010KT 07/M04 A2992 RMK A01 T00681041  RH  046%=      5-min Rain = 0
KCL2 210705Z 15010KT 07/M04 A2992 RMK A01 T00681041  RH  046%=      5-min Rain = 0
KCL2 210706Z 15011KT 07/M04 A2992 RMK A01 T00681040  RH  046%=      5-min Rain = 0
KCL2 210707Z 15011KT 07/M04 A2992 RMK A01 T00681040  RH  046%=      5-min Rain = 0
KCL2 210708Z 15011KT 07/M04 A2992 RMK A01 T00681040  RH  046%=      5-min Rain = 0
KCL2 210709Z 15011KT 07/M04 A2992 RMK A01 T00681040  RH  046%=      5-min Rain = 0
KCL2 210710Z 15011KT 07/M04 A2992 RMK A01 T00681039  RH  046%=      5-min Rain = 0
KCL2 210711Z 15011KT 07/M04 A2992 RMK A01 T00681039  RH  046%=      5-min Rain = 0
KCL2 210712Z 15011KT 07/M04 A2992 RMK A01 T00681039  RH  047%=      5-min Rain = 0
KCL2 210713Z 15011KT 07/M04 A2992 RMK A01 T00681038  RH  047%=      5-min Rain = 0
KCL2 210714Z 15013KT 07/M04 A2992 RMK A01 T00681038  RH  047%=      5-min Rain = 0
KCL2 210715Z 16013KT 07/M04 A2992 RMK A01 T00681038  RH  047%=      5-min Rain = 0
KCL2 210716Z 15011KT 07/M04 A2992 RMK A01 T00681038  RH  047%=      5-min Rain = 0
KCL2 210717Z 15013KT 07/M04 A2992 RMK A01 T00681038  RH  047%=      5-min Rain = 0
KCL2 210718Z 15012KT 07/M04 A2992 RMK A01 T00681037  RH  047%=      5-min Rain = 0
KCL2 210719Z 15011KT 07/M04 A2992 RMK A01 T00681037  RH  047%=      5-min Rain = 0
KCL2 210720Z 15012KT 07/M04 A2992 RMK A01 T00671037  RH  047%=      5-min Rain = 0
KCL2 210721Z 16012KT 07/M04 A2992 RMK A01 T00671037  RH  048%=      5-min Rain = 0
KCL2 210722Z 15011G16KT 07/M04 A2992 RMK A01 T00671037  RH  048%=      5-min Rain = 0
KCL2 210723Z 15011KT 07/M04 A2992 RMK A01 T00671036  RH  048%=      5-min Rain = 0
KCL2 210724Z 16014KT 07/M04 A2992 RMK A01 T00671036  RH  048%=      5-min Rain = 0
KCL2 210725Z 16013KT 07/M04 A2993 RMK A01 T00671035  RH  048%=      5-min Rain = 0
KCL2 210726Z 16013KT 07/M03 A2993 RMK A01 T00671034  RH  048%=      5-min Rain = 0
KCL2 210727Z 16011KT 07/M03 A2992 RMK A01 T00671034  RH  048%=      5-min Rain = 0
KCL2 210728Z 16012KT 07/M03 A2992 RMK A01 T00671033  RH  049%=      5-min Rain = 0
KCL2 210729Z 16013KT 07/M03 A2992 RMK A01 T00671033  RH  049%=      5-min Rain = 0
KCL2 210730Z 16013KT 07/M03 A2992 RMK A01 T00671032  RH  049%=      5-min Rain = 0
KCL2 210731Z 15012G18KT 07/M03 A2992 RMK A01 T00671032  RH  049%=      5-min Rain = 0
KCL2 210732Z 16013G18KT 07/M03 A2992 RMK A01 T00671031  RH  050%=      5-min Rain = 0
KCL2 210733Z 16012KT 07/M03 A2992 RMK A01 T00681030  RH  050%=      5-min Rain = 0
KCL2 210734Z 15012KT 07/M03 A2992 RMK A01 T00681030  RH  050%=      5-min Rain = 0
KCL2 210735Z 15012KT 07/M03 A2992 RMK A01 T00681030  RH  050%=      5-min Rain = 0
KCL2 210736Z 16011KT 07/M03 A2992 RMK A01 T00681030  RH  050%=      5-min Rain = 0
KCL2 210737Z 15012KT 07/M03 A2992 RMK A01 T00681029  RH  050%=      5-min Rain = 0
KCL2 210738Z 15012G17KT 07/M03 A2992 RMK A01 T00671029  RH  050%=      5-min Rain = 0
KCL2 210739Z 15012KT 07/M03 A2992 RMK A01 T00671029  RH  050%=      5-min Rain = 0
KCL2 210740Z 16012G17KT 07/M03 A2992 RMK A01 T00671028  RH  051%=      5-min Rain = 0
KCL2 210741Z 15010KT 07/M03 A2992 RMK A01 T00661029  RH  051%=      5-min Rain = 0
KCL2 210742Z 16010KT 07/M03 A2992 RMK A01 T00661028  RH  051%=      5-min Rain = 0
KCL2 210743Z 16009KT 07/M03 A2992 RMK A01 T00661028  RH  051%=      5-min Rain = 0
KCL2 210744Z 15011KT 07/M03 A2992 RMK A01 T00651028  RH  052%=      5-min Rain = 0
KCL2 210745Z 15011KT 07/M03 A2992 RMK A01 T00651027  RH  052%=      5-min Rain = 0
KCL2 210746Z 15012KT 07/M03 A2992 RMK A01 T00651027  RH  052%=      5-min Rain = 0
KCL2 210747Z 15011KT 07/M03 A2992 RMK A01 T00661026  RH  052%=      5-min Rain = 0
KCL2 210748Z 15009KT 07/M03 A2992 RMK A01 T00661026  RH  052%=      5-min Rain = 0
KCL2 210749Z 14010KT 07/M03 A2992 RMK A01 T00651026  RH  052%=      5-min Rain = 0
KCL2 210750Z 15010KT 07/M03 A2992 RMK A01 T00651026  RH  052%=      5-min Rain = 0
KCL2 210751Z 15011G16KT 07/M03 A2992 RMK A01 T00651025  RH  052%=      5-min Rain = 0
KCL2 210752Z 15011KT 07/M03 A2992 RMK A01 T00651025  RH  052%=      5-min Rain = 0
KCL2 210753Z 15011KT 07/M03 A2992 RMK A01 T00651025  RH  053%=      5-min Rain = 0
KCL2 210754Z 14008KT 07/M03 A2992 RMK A01 T00651025  RH  053%=      5-min Rain = 0
KCL2 210755Z 15009KT 06/M03 A2992 RMK A01 T00641025  RH  053%=      5-min Rain = 0
KCL2 210756Z 15010KT 06/M03 A2992 RMK A01 T00641025  RH  053%=      5-min Rain = 0
KCL2 210757Z 14009KT 06/M03 A2992 RMK A01 T00631025  RH  053%=      5-min Rain = 0
KCL2 210758Z 15009KT 06/M02 A2992 RMK A01 T00631024  RH  054%=      5-min Rain = 0
KCL2 210759Z 15011KT 06/M02 A2992 RMK A01 T00631024  RH  054%=      5-min Rain = 0
KCL2 210800Z 15011KT 06/M02 A2992 RMK A01 T00631024  RH  054%=      5-min Rain = 0
KCL2 210801Z 15010KT 06/M02 A2992 RMK A01 T00631024  RH  054%=      5-min Rain = 0
KCL2 210802Z 15009KT 06/M02 A2992 RMK A01 T00641023  RH  054%=      5-min Rain = 0
KCL2 210803Z 15011KT 06/M02 A2992 RMK A01 T00631023  RH  054%=      5-min Rain = 0
KCL2 210804Z 15012KT 06/M02 A2992 RMK A01 T00631023  RH  054%=      5-min Rain = 0
KCL2 210805Z 15011KT 06/M02 A2992 RMK A01 T00631023  RH  054%=      5-min Rain = 0
KCL2 210806Z 15008KT 06/M02 A2992 RMK A01 T00631023  RH  054%=      5-min Rain = 0
KCL2 210807Z 15010KT 06/M02 A2992 RMK A01 T00631023  RH  054%=      5-min Rain = 0
KCL2 210808Z 15011KT 06/M02 A2991 RMK A01 T00631022  RH  054%=      5-min Rain = 0
KCL2 210809Z 15009KT 06/M02 A2991 RMK A01 T00631022  RH  055%=      5-min Rain = 0
KCL2 210810Z 15010KT 06/M02 A2991 RMK A01 T00621022  RH  055%=      5-min Rain = 0
KCL2 210811Z 15008KT 06/M02 A2991 RMK A01 T00621022  RH  055%=      5-min Rain = 0
KCL2 210812Z 15008KT 06/M02 A2991 RMK A01 T00621022  RH  055%=      5-min Rain = 0
KCL2 210813Z 15009G14KT 06/M02 A2992 RMK A01 T00611022  RH  055%=      5-min Rain = 0
KCL2 210814Z 15010KT 06/M02 A2991 RMK A01 T00611021  RH  056%=      5-min Rain = 0
KCL2 210815Z 15008KT 06/M02 A2992 RMK A01 T00611021  RH  056%=      5-min Rain = 0
KCL2 210816Z 16009KT 06/M02 A2992 RMK A01 T00611021  RH  056%=      5-min Rain = 0
KCL2 210817Z 16008KT 06/M02 A2992 RMK A01 T00601021  RH  056%=      5-min Rain = 0
KCL2 210818Z 15008KT 06/M02 A2992 RMK A01 T00611021  RH  056%=      5-min Rain = 0
KCL2 210819Z 16009KT 06/M02 A2991 RMK A01 T00601021  RH  056%=      5-min Rain = 0
KCL2 210820Z 15010KT 06/M02 A2991 RMK A01 T00611021  RH  056%=      5-min Rain = 0
KCL2 210821Z 16010KT 06/M02 A2992 RMK A01 T00611020  RH  056%=      5-min Rain = 0
KCL2 210822Z 15010KT 06/M02 A2991 RMK A01 T00611020  RH  056%=      5-min Rain = 0
KCL2 210823Z 16012KT 06/M02 A2991 RMK A01 T00621020  RH  056%=      5-min Rain = 0
KCL2 210824Z 15009KT 06/M02 A2991 RMK A01 T00621020  RH  056%=      5-min Rain = 0
KCL2 210825Z 16011KT 06/M02 A2991 RMK A01 T00621020  RH  056%=      5-min Rain = 0
KCL2 210826Z 15009KT 06/M02 A2991 RMK A01 T00621019  RH  056%=      5-min Rain = 0
KCL2 210827Z 15011KT 06/M02 A2991 RMK A01 T00621019  RH  056%=      5-min Rain = 0
KCL2 210828Z 16010KT 06/M02 A2991 RMK A01 T00621019  RH  056%=      5-min Rain = 0
KCL2 210829Z 15010KT 06/M02 A2991 RMK A01 T00621019  RH  056%=      5-min Rain = 0
KCL2 210830Z 16010KT 06/M02 A2991 RMK A01 T00621019  RH  056%=      5-min Rain = 0
KCL2 210831Z 15012KT 06/M02 A2991 RMK A01 T00621019  RH  056%=      5-min Rain = 0
KCL2 210832Z 16011KT 06/M02 A2991 RMK A01 T00621019  RH  056%=      5-min Rain = 0
KCL2 210833Z 16009KT 06/M02 A2991 RMK A01 T00621019  RH  056%=      5-min Rain = 0
KCL2 210834Z 16009KT 06/M02 A2991 RMK A01 T00611019  RH  056%=      5-min Rain = 0
KCL2 210835Z 16011KT 06/M02 A2991 RMK A01 T00611018  RH  057%=      5-min Rain = 0
KCL2 210836Z 16012KT 06/M02 A2991 RMK A01 T00611019  RH  057%=      5-min Rain = 0
KCL2 210837Z 16011KT 06/M02 A2991 RMK A01 T00611019  RH  057%=      5-min Rain = 0
KCL2 210838Z 16012KT 06/M02 A2991 RMK A01 T00611018  RH  057%=      5-min Rain = 0
KCL2 210839Z 16010KT 06/M02 A2991 RMK A01 T00611018  RH  057%=      5-min Rain = 0
KCL2 210840Z 16011KT 06/M02 A2991 RMK A01 T00611018  RH  057%=      5-min Rain = 0
KCL2 210841Z 15012KT 06/M02 A2991 RMK A01 T00611018  RH  057%=      5-min Rain = 0
KCL2 210842Z 16010KT 06/M02 A2991 RMK A01 T00611018  RH  057%=      5-min Rain = 0
KCL2 210843Z 16011KT 06/M02 A2991 RMK A01 T00611018  RH  057%=      5-min Rain = 0
KCL2 210844Z 16011KT 06/M02 A2991 RMK A01 T00611018  RH  057%=      5-min Rain = 0
KCL2 210845Z 16010KT 06/M02 A2991 RMK A01 T00611018  RH  057%=      5-min Rain = 0
KCL2 210846Z 16011KT 06/M02 A2991 RMK A01 T00611017  RH  057%=      5-min Rain = 0
KCL2 210847Z 15012KT 06/M02 A2991 RMK A01 T00611017  RH  057%=      5-min Rain = 0
KCL2 210848Z 16010KT 06/M02 A2991 RMK A01 T00611018  RH  057%=      5-min Rain = 0
KCL2 210849Z 16010KT 06/M02 A2991 RMK A01 T00611018  RH  057%=      5-min Rain = 0
KCL2 210850Z 16013KT 06/M02 A2991 RMK A01 T00611017  RH  057%=      5-min Rain = 0
KCL2 210851Z 16010KT 06/M02 A299 RMK A01 T00611018  RH  057%=      5-min Rain = 0
KCL2 210852Z 16012KT 06/M02 A2991 RMK A01 T00621017  RH  057%=      5-min Rain = 0
KCL2 210853Z 16011KT 06/M02 A2991 RMK A01 T00611017  RH  057%=      5-min Rain = 0
KCL2 210854Z 16011KT 06/M02 A2991 RMK A01 T00621017  RH  057%=      5-min Rain = 0
KCL2 210855Z 16011KT 06/M02 A2991 RMK A01 T00621017  RH  057%=      5-min Rain = 0
KCL2 210856Z 15010KT 06/M02 A299 RMK A01 T00621017  RH  057%=      5-min Rain = 0
KCL2 210857Z 15010KT 06/M02 A2991 RMK A01 T00621017  RH  057%=      5-min Rain = 0
KCL2 210858Z 15011KT 06/M02 A299 RMK A01 T00611017  RH  057%=      5-min Rain = 0
KCL2 210859Z 16012KT 06/M02 A299 RMK A01 T00611017  RH  058%=      5-min Rain = 0
KCL2 210900Z 15010KT 06/M02 A299 RMK A01 T00611016  RH  058%=      5-min Rain = 0
KCL2 210901Z 16012KT 06/M02 A299 RMK A01 T00601016  RH  058%=      5-min Rain = 0
KCL2 210902Z 16011KT 06/M02 A299 RMK A01 T00611016  RH  058%=      5-min Rain = 0
KCL2 210903Z 16011KT 06/M02 A299 RMK A01 T00601016  RH  058%=      5-min Rain = 0
KCL2 210904Z 16009KT 06/M02 A2991 RMK A01 T00601016  RH  058%=      5-min Rain = 0
KCL2 210905Z 15010KT 06/M02 A2991 RMK A01 T00601015  RH  058%=      5-min Rain = 0
KCL2 210906Z 16010KT 06/M02 A2991 RMK A01 T00601015  RH  059%=      5-min Rain = 0
KCL2 210907Z 15010KT 06/M02 A2991 RMK A01 T00591015  RH  059%=      5-min Rain = 0
KCL2 210908Z 15009KT 06/M02 A2991 RMK A01 T00591015  RH  059%=      5-min Rain = 0
KCL2 210909Z 15009KT 06/M02 A2991 RMK A01 T00581015  RH  060%=      5-min Rain = 0
KCL2 210910Z 15010KT 06/M02 A2991 RMK A01 T00571015  RH  060%=      5-min Rain = 0
KCL2 210911Z 15010KT 06/M02 A2991 RMK A01 T00571015  RH  060%=      5-min Rain = 0
KCL2 210912Z 15009KT 06/M01 A2991 RMK A01 T00571014  RH  060%=      5-min Rain = 0
KCL2 210913Z 15008KT 06/M02 A2991 RMK A01 T00571015  RH  060%=      5-min Rain = 0
KCL2 210914Z 15009KT 06/M02 A2991 RMK A01 T00571015  RH  060%=      5-min Rain = 0
KCL2 210915Z 15010KT 06/M02 A2991 RMK A01 T00571015  RH  060%=      5-min Rain = 0
KCL2 210916Z 15010KT 06/M02 A2991 RMK A01 T00561015  RH  060%=      5-min Rain = 0
KCL2 210917Z 15009KT 06/M02 A299 RMK A01 T00551015  RH  060%=      5-min Rain = 0
KCL2 210918Z 15010KT 06/M02 A299 RMK A01 T00551015  RH  061%=      5-min Rain = 0
KCL2 210919Z 14010KT 06/M02 A299 RMK A01 T00551015  RH  061%=      5-min Rain = 0
KCL2 210920Z 14009KT 05/M02 A299 RMK A01 T00541015  RH  061%=      5-min Rain = 0
KCL2 210921Z 14009KT 05/M02 A2991 RMK A01 T00541015  RH  061%=      5-min Rain = 0
KCL2 210922Z 14010KT 05/M02 A2991 RMK A01 T00541015  RH  061%=      5-min Rain = 0
KCL2 210923Z 14009KT 05/M02 A2991 RMK A01 T00531015  RH  061%=      5-min Rain = 0
KCL2 210924Z 14009KT 05/M02 A299 RMK A01 T00531015  RH  061%=      5-min Rain = 0
KCL2 210925Z 14008KT 05/M01 A299 RMK A01 T00531014  RH  062%=      5-min Rain = 0
KCL2 210926Z 14008KT 05/M02 A299 RMK A01 T00531015  RH  062%=      5-min Rain = 0
KCL2 210927Z 14008KT 05/M01 A299 RMK A01 T00531014  RH  062%=      5-min Rain = 0
KCL2 210928Z 14007KT 05/M01 A299 RMK A01 T00521014  RH  062%=      5-min Rain = 0
KCL2 210929Z 14008KT 05/M01 A299 RMK A01 T00511014  RH  063%=      5-min Rain = 0
KCL2 210930Z 14008KT 05/M01 A299 RMK A01 T00511014  RH  063%=      5-min Rain = 0
KCL2 210931Z 14007KT 05/M01 A299 RMK A01 T00511014  RH  063%=      5-min Rain = 0
KCL2 210932Z 14007KT 05/M01 A299 RMK A01 T00511014  RH  063%=      5-min Rain = 0
KCL2 210933Z 15008KT 05/M01 A2991 RMK A01 T00511014  RH  063%=      5-min Rain = 0
KCL2 210934Z 15008KT 05/M01 A2991 RMK A01 T00511013  RH  063%=      5-min Rain = 0
KCL2 210935Z 15008KT 05/M01 A299 RMK A01 T00521013  RH  063%=      5-min Rain = 0
KCL2 210936Z 15009KT 05/M01 A299 RMK A01 T00521014  RH  063%=      5-min Rain = 0
KCL2 210937Z 15009KT 05/M01 A299 RMK A01 T00531013  RH  062%=      5-min Rain = 0
KCL2 210938Z 15009KT 05/M01 A299 RMK A01 T00531013  RH  062%=      5-min Rain = 0
KCL2 210939Z 15009KT 05/M01 A299 RMK A01 T00531013  RH  062%=      5-min Rain = 0
KCL2 210940Z 15010KT 05/M01 A299 RMK A01 T00541013  RH  062%=      5-min Rain = 0
KCL2 210941Z 15009KT 05/M01 A299 RMK A01 T00541013  RH  062%=      5-min Rain = 0
KCL2 210942Z 15009KT 05/M01 A299 RMK A01 T00541013  RH  062%=      5-min Rain = 0
KCL2 210943Z 15010KT 05/M01 A299 RMK A01 T00541013  RH  062%=      5-min Rain = 0
KCL2 210944Z 15010KT 06/M01 A299 RMK A01 T00551013  RH  062%=      5-min Rain = 0
KCL2 210945Z 15009KT 06/M01 A299 RMK A01 T00551013  RH  061%=      5-min Rain = 0
KCL2 210946Z 15009KT 06/M01 A299 RMK A01 T00551013  RH  061%=      5-min Rain = 0
KCL2 210947Z 15009KT 06/M01 A299 RMK A01 T00551014  RH  061%=      5-min Rain = 0
KCL2 210948Z 15009KT 06/M01 A299 RMK A01 T00561013  RH  061%=      5-min Rain = 0
KCL2 210949Z 14008KT 06/M01 A299 RMK A01 T00561014  RH  061%=      5-min Rain = 0
KCL2 210950Z 14009KT 06/M01 A299 RMK A01 T00571013  RH  061%=      5-min Rain = 0
KCL2 210951Z 14010KT 06/M01 A2989 RMK A01 T00571014  RH  061%=      5-min Rain = 0
KCL2 210952Z 14010KT 06/M01 A2989 RMK A01 T00571014  RH  060%=      5-min Rain = 0
KCL2 210953Z 13009KT 06/M01 A2989 RMK A01 T00581014  RH  060%=      5-min Rain = 0
KCL2 210954Z 13008KT 06/M01 A2989 RMK A01 T00581014  RH  060%=      5-min Rain = 0
KCL2 210955Z 13008KT 06/M01 A2989 RMK A01 T00581014  RH  060%=      5-min Rain = 0
KCL2 210956Z 12009KT 06/M01 A2989 RMK A01 T00591014  RH  060%=      5-min Rain = 0
KCL2 210957Z 13008KT 06/M01 A2989 RMK A01 T00591014  RH  060%=      5-min Rain = 0
KCL2 210958Z 13009KT 06/M01 A2989 RMK A01 T00601014  RH  059%=      5-min Rain = 0
KCL2 210959Z 13009KT 06/M01 A2989 RMK A01 T00601014  RH  059%=      5-min Rain = 0
KCL2 211000Z 12007KT 06/M01 A2989 RMK A01 T00611014  RH  059%=      5-min Rain = 0
KCL2 211001Z 12008KT 06/M01 A2989 RMK A01 T00611014  RH  059%=      5-min Rain = 0
KCL2 211002Z 12009KT 06/M01 A2989 RMK A01 T00611013  RH  059%=      5-min Rain = 0
KCL2 211003Z 13010KT 06/M01 A2989 RMK A01 T00611012  RH  060%=      5-min Rain = 0
KCL2 211004Z 13009KT 06/M01 A2989 RMK A01 T00601012  RH  060%=      5-min Rain = 0
KCL2 211005Z 13009KT 06/M01 A2989 RMK A01 T00601012  RH  060%=      5-min Rain = 0
KCL2 211006Z 13008KT 06/M01 A2989 RMK A01 T00601012  RH  060%=      5-min Rain = 0
KCL2 211007Z 12008KT 06/M01 A2989 RMK A01 T00601012  RH  060%=      5-min Rain = 0
KCL2 211008Z 13008G14KT 06/M01 A2989 RMK A01 T00601011  RH  060%=      5-min Rain = 0
KCL2 211009Z 13010KT 06/M01 A2989 RMK A01 T00611012  RH  060%=      5-min Rain = 0
KCL2 211010Z 12009KT 06/M01 A2989 RMK A01 T00621012  RH  059%=      5-min Rain = 0
KCL2 211011Z 13009KT 06/M01 A2989 RMK A01 T00621012  RH  059%=      5-min Rain = 0
KCL2 211012Z 13009KT 06/M01 A2989 RMK A01 T00611012  RH  060%=      5-min Rain = 0
KCL2 211013Z 13008KT 06/M01 A2989 RMK A01 T00611012  RH  060%=      5-min Rain = 0
KCL2 211014Z 13009KT 06/M01 A2989 RMK A01 T00611011  RH  060%=      5-min Rain = 0
KCL2 211015Z 13007KT 06/M01 A2989 RMK A01 T00611011  RH  060%=      5-min Rain = 0
KCL2 211016Z 14008KT 06/M01 A2989 RMK A01 T00611010  RH  060%=      5-min Rain = 0
KCL2 211017Z 14009KT 06/M01 A2989 RMK A01 T00601010  RH  060%=      5-min Rain = 0
KCL2 211018Z 14009KT 06/M01 A2989 RMK A01 T00601010  RH  060%=      5-min Rain = 0
KCL2 211019Z 14008KT 06/M01 A2989 RMK A01 T00601010  RH  061%=      5-min Rain = 0
KCL2 211020Z 14008KT 06/M01 A2989 RMK A01 T00601010  RH  061%=      5-min Rain = 0
KCL2 211021Z 13009KT 06/M01 A2989 RMK A01 T00601010  RH  061%=      5-min Rain = 0
KCL2 211022Z 14009KT 06/M01 A2989 RMK A01 T00601010  RH  061%=      5-min Rain = 0
KCL2 211023Z 14009KT 06/M01 A2989 RMK A01 T00591010  RH  061%=      5-min Rain = 0
KCL2 211024Z 14010KT 06/M01 A2989 RMK A01 T00591010  RH  061%=      5-min Rain = 0
KCL2 211025Z 14010KT 06/M01 A2988 RMK A01 T00591011  RH  061%=      5-min Rain = 0
KCL2 211026Z 15010KT 06/M01 A2988 RMK A01 T00591011  RH  061%=      5-min Rain = 0
KCL2 211027Z 15009KT 06/M01 A2989 RMK A01 T00581011  RH  061%=      5-min Rain = 0
KCL2 211028Z 16009KT 06/M01 A2989 RMK A01 T00571011  RH  061%=      5-min Rain = 0
KCL2 211029Z 16009KT 06/M01 A2989 RMK A01 T00571011  RH  062%=      5-min Rain = 0
KCL2 211030Z 16011KT 06/M01 A2989 RMK A01 T00561011  RH  062%=      5-min Rain = 0
KCL2 211031Z 16011KT 06/M01 A2989 RMK A01 T00561011  RH  062%=      5-min Rain = 0
KCL2 211032Z 16010KT 06/M01 A2989 RMK A01 T00561012  RH  062%=      5-min Rain = 0
KCL2 211033Z 16011KT 06/M01 A2989 RMK A01 T00551012  RH  062%=      5-min Rain = 0
KCL2 211034Z 16009KT 06/M01 A2989 RMK A01 T00551012  RH  062%=      5-min Rain = 0
KCL2 211035Z 16011KT 06/M01 A2989 RMK A01 T00551012  RH  062%=      5-min Rain = 0
KCL2 211036Z 16009KT 06/M01 A2989 RMK A01 T00551012  RH  062%=      5-min Rain = 0
KCL2 211037Z 16009KT 06/M01 A2989 RMK A01 T00551012  RH  062%=      5-min Rain = 0
KCL2 211038Z 16009KT 05/M01 A2989 RMK A01 T00541013  RH  062%=      5-min Rain = 0
KCL2 211039Z 16011KT 06/M01 A2989 RMK A01 T00551013  RH  062%=      5-min Rain = 0
KCL2 211040Z 16009KT 06/M01 A2989 RMK A01 T00551013  RH  061%=      5-min Rain = 0
KCL2 211041Z 16009KT 06/M01 A2989 RMK A01 T00551013  RH  062%=      5-min Rain = 0
KCL2 211042Z 15009KT 06/M01 A2989 RMK A01 T00551013  RH  062%=      5-min Rain = 0
KCL2 211043Z 15009KT 06/M01 A2989 RMK A01 T00561012  RH  061%=      5-min Rain = 0
KCL2 211044Z 15009KT 06/M01 A2989 RMK A01 T00561012  RH  061%=      5-min Rain = 0
KCL2 211045Z 15007KT 06/M01 A2989 RMK A01 T00561012  RH  061%=      5-min Rain = 0
KCL2 211046Z 16008KT 06/M01 A2989 RMK A01 T00561012  RH  061%=      5-min Rain = 0
KCL2 211047Z 15009KT 06/M01 A2989 RMK A01 T00561012  RH  061%=      5-min Rain = 0
KCL2 211048Z 16008KT 06/M01 A2989 RMK A01 T00571012  RH  061%=      5-min Rain = 0
KCL2 211049Z 15007KT 06/M01 A2989 RMK A01 T00581012  RH  061%=      5-min Rain = 0
KCL2 211050Z 15008KT 06/M01 A2989 RMK A01 T00581012  RH  061%=      5-min Rain = 0
KCL2 211051Z 15010KT 06/M01 A2989 RMK A01 T00581012  RH  061%=      5-min Rain = 0
KCL2 211052Z 16009KT 06/M01 A299 RMK A01 T00591012  RH  060%=      5-min Rain = 0
KCL2 211053Z 15009KT 06/M01 A299 RMK A01 T00601011  RH  060%=      5-min Rain = 0
KCL2 211054Z 15010KT 06/M01 A2989 RMK A01 T00601011  RH  060%=      5-min Rain = 0
KCL2 211055Z 16010KT 06/M01 A299 RMK A01 T00601011  RH  060%=      5-min Rain = 0
KCL2 211056Z 15010KT 06/M01 A2989 RMK A01 T00611011  RH  060%=      5-min Rain = 0
KCL2 211057Z 15010KT 06/M01 A2989 RMK A01 T00601011  RH  060%=      5-min Rain = 0
KCL2 211058Z 15009KT 06/M01 A2989 RMK A01 T00611011  RH  060%=      5-min Rain = 0
KCL2 211059Z 15010KT 06/M01 A299 RMK A01 T00611010  RH  060%=      5-min Rain = 0
KCL2 211100Z 15009KT 06/M01 A299 RMK A01 T00611010  RH  060%=      5-min Rain = 0
KCL2 211101Z 15009KT 06/M01 A299 RMK A01 T00611010  RH  061%=      5-min Rain = 0
KCL2 211102Z 15008KT 06/M01 A299 RMK A01 T00601010  RH  061%=      5-min Rain = 0
KCL2 211103Z 15008KT 06/M01 A299 RMK A01 T00601010  RH  061%=      5-min Rain = 0
KCL2 211104Z 15009KT 06/M01 A299 RMK A01 T00591010  RH  061%=      5-min Rain = 0
KCL2 211105Z 15010KT 06/M01 A299 RMK A01 T00591010  RH  061%=      5-min Rain = 0
KCL2 211106Z 15008KT 06/M01 A299 RMK A01 T00591010  RH  061%=      5-min Rain = 0
KCL2 211107Z 15008KT 06/M01 A299 RMK A01 T00591010  RH  061%=      5-min Rain = 0
KCL2 211108Z 15009KT 06/M01 A299 RMK A01 T00591010  RH  061%=      5-min Rain = 0
KCL2 211109Z 15008KT 06/M01 A299 RMK A01 T00591009  RH  061%=      5-min Rain = 0
KCL2 211110Z 15009KT 06/M01 A299 RMK A01 T00591009  RH  062%=      5-min Rain = 0
KCL2 211111Z 15009KT 06/M01 A299 RMK A01 T00591009  RH  062%=      5-min Rain = 0
KCL2 211112Z 15010KT 06/M01 A299 RMK A01 T00591009  RH  062%=      5-min Rain = 0
KCL2 211113Z 15009KT 06/M01 A299 RMK A01 T00591009  RH  062%=      5-min Rain = 0
KCL2 211114Z 14009KT 06/M01 A299 RMK A01 T00601008  RH  062%=      5-min Rain = 0
KCL2 211115Z 15008KT 06/M01 A299 RMK A01 T00601008  RH  062%=      5-min Rain = 0
KCL2 211116Z 15007KT 06/M01 A299 RMK A01 T00601007  RH  062%=      5-min Rain = 0
KCL2 211117Z 15008KT 06/M01 A299 RMK A01 T00601007  RH  062%=      5-min Rain = 0
KCL2 211118Z 15008KT 06/M01 A299 RMK A01 T00591007  RH  062%=      5-min Rain = 0
KCL2 211119Z 15009KT 06/M01 A299 RMK A01 T00591007  RH  062%=      5-min Rain = 0
KCL2 211120Z 15010KT 06/M01 A299 RMK A01 T00591007  RH  062%=      5-min Rain = 0
KCL2 211121Z 15007KT 06/M01 A299 RMK A01 T00591007  RH  062%=      5-min Rain = 0
KCL2 211122Z 14009KT 06/M01 A299 RMK A01 T00601007  RH  062%=      5-min Rain = 0
KCL2 211123Z 15009KT 06/M01 A299 RMK A01 T00591007  RH  062%=      5-min Rain = 0
KCL2 211124Z 15009KT 06/M01 A299 RMK A01 T00601007  RH  062%=      5-min Rain = 0
KCL2 211125Z 14008KT 06/M01 A299 RMK A01 T00601007  RH  062%=      5-min Rain = 0
KCL2 211126Z 15008KT 06/M01 A299 RMK A01 T00601007  RH  062%=      5-min Rain = 0
KCL2 211127Z 15008KT 06/M01 A299 RMK A01 T00601007  RH  062%=      5-min Rain = 0
KCL2 211128Z 15008KT 06/M01 A299 RMK A01 T00601007  RH  062%=      5-min Rain = 0
KCL2 211129Z 15008KT 06/M01 A299 RMK A01 T00601006  RH  062%=      5-min Rain = 0
KCL2 211130Z 14009KT 06/M01 A299 RMK A01 T00591007  RH  062%=      5-min Rain = 0
KCL2 211131Z 15009KT 06/M01 A299 RMK A01 T00591006  RH  063%=      5-min Rain = 0
KCL2 211132Z 14009KT 06/M01 A299 RMK A01 T00591006  RH  063%=      5-min Rain = 0
KCL2 211133Z 15010KT 06/M01 A299 RMK A01 T00591006  RH  063%=      5-min Rain = 0
KCL2 211134Z 14011KT 06/M01 A299 RMK A01 T00591006  RH  063%=      5-min Rain = 0
KCL2 211135Z 14011KT 06/M01 A299 RMK A01 T00591006  RH  063%=      5-min Rain = 0
KCL2 211136Z 14009KT 06/M01 A299 RMK A01 T00591006  RH  063%=      5-min Rain = 0
KCL2 211137Z 14008KT 06/M01 A299 RMK A01 T00591006  RH  063%=      5-min Rain = 0
KCL2 211138Z 14008KT 06/M01 A299 RMK A01 T00591006  RH  063%=      5-min Rain = 0
KCL2 211139Z 14009KT 06/M01 A299 RMK A01 T00591006  RH  063%=      5-min Rain = 0
KCL2 211140Z 14008KT 06/M01 A299 RMK A01 T00591006  RH  063%=      5-min Rain = 0
KCL2 211141Z 14009KT 06/M01 A299 RMK A01 T00591006  RH  063%=      5-min Rain = 0
KCL2 211142Z 14008KT 06/M01 A299 RMK A01 T00591006  RH  063%=      5-min Rain = 0
KCL2 211143Z 15009KT 06/M01 A299 RMK A01 T00591006  RH  063%=      5-min Rain = 0
KCL2 211144Z 14008KT 06/M01 A299 RMK A01 T00591006  RH  063%=      5-min Rain = 0
KCL2 211145Z 14008KT 06/M01 A299 RMK A01 T00601006  RH  063%=      5-min Rain = 0
KCL2 211146Z 14007KT 06/M01 A299 RMK A01 T00601006  RH  063%=      5-min Rain = 0
KCL2 211147Z 14007KT 06/M01 A299 RMK A01 T00601006  RH  063%=      5-min Rain = 0
KCL2 211148Z 14007KT 06/M01 A299 RMK A01 T00591006  RH  063%=      5-min Rain = 0
KCL2 211149Z 14006KT 06/M01 A299 RMK A01 T00601005  RH  063%=      5-min Rain = 0
KCL2 211150Z 14008KT 06/M01 A299 RMK A01 T00591006  RH  063%=      5-min Rain = 0
KCL2 211151Z 14008KT 06/M01 A299 RMK A01 T00591006  RH  063%=      5-min Rain = 0
KCL2 211152Z 14007KT 06/M01 A299 RMK A01 T00591006  RH  063%=      5-min Rain = 0
KCL2 211153Z 14007KT 06/M01 A299 RMK A01 T00591005  RH  063%=      5-min Rain = 0
KCL2 211154Z 14007KT 06/M01 A299 RMK A01 T00591006  RH  063%=      5-min Rain = 0
KCL2 211155Z 14006KT 06/M01 A299 RMK A01 T00591006  RH  063%=      5-min Rain = 0
KCL2 211156Z 14006KT 06/M01 A2991 RMK A01 T00591006  RH  063%=      5-min Rain = 0
KCL2 211157Z 14008KT 06/M01 A2991 RMK A01 T00591006  RH  063%=      5-min Rain = 0
KCL2 211158Z 14008KT 06/M01 A2991 RMK A01 T00591006  RH  063%=      5-min Rain = 0
KCL2 211159Z 15007KT 06/M01 A2991 RMK A01 T00601006  RH  062%=      5-min Rain = 0
KCL2 211200Z 14006KT 06/M01 A2991 RMK A01 T00601006  RH  062%=      5-min Rain = 0
KCL2 211201Z 14006KT 06/M01 A2991 RMK A01 T00611006  RH  062%=      5-min Rain = 0
KCL2 211202Z 14007KT 06/M01 A2991 RMK A01 T00601006  RH  063%=      5-min Rain = 0
KCL2 211203Z 14006KT 06/M01 A2991 RMK A01 T00601006  RH  063%=      5-min Rain = 0
KCL2 211204Z 13006KT 06/M01 A2991 RMK A01 T00591006  RH  063%=      5-min Rain = 0
KCL2 211205Z 13008KT 06/M01 A2991 RMK A01 T00601005  RH  063%=      5-min Rain = 0
KCL2 211206Z 13008KT 06/M01 A2991 RMK A01 T00601005  RH  063%=      5-min Rain = 0
KCL2 211207Z 14007KT 06/M01 A2991 RMK A01 T00591005  RH  063%=      5-min Rain = 0
KCL2 211208Z 14007KT 06/M01 A2991 RMK A01 T00591005  RH  063%=      5-min Rain = 0
KCL2 211209Z 14007KT 06/M01 A2991 RMK A01 T00591005  RH  064%=      5-min Rain = 0
KCL2 211210Z 15008KT 06/M01 A2991 RMK A01 T00591005  RH  064%=      5-min Rain = 0
KCL2 211211Z 14006KT 06/M01 A2991 RMK A01 T00591005  RH  064%=      5-min Rain = 0
KCL2 211212Z 14007KT 06/M01 A2991 RMK A01 T00581005  RH  064%=      5-min Rain = 0
KCL2 211213Z 14007KT 06/M01 A2991 RMK A01 T00581005  RH  064%=      5-min Rain = 0
KCL2 211214Z 15007KT 06/M01 A2991 RMK A01 T00581005  RH  064%=      5-min Rain = 0
KCL2 211215Z 15005KT 06/M01 A2991 RMK A01 T00581005  RH  064%=      5-min Rain = 0
KCL2 211216Z 14007KT 06/M01 A2991 RMK A01 T00581005  RH  064%=      5-min Rain = 0
KCL2 211217Z 15009KT 06/M01 A2991 RMK A01 T00581005  RH  064%=      5-min Rain = 0
KCL2 211218Z 15007KT 06/M01 A2991 RMK A01 T00581005  RH  064%=      5-min Rain = 0
KCL2 211219Z 14007KT 06/M01 A2991 RMK A01 T00581005  RH  064%=      5-min Rain = 0
KCL2 211220Z 14008KT 06/M01 A2991 RMK A01 T00581005  RH  064%=      5-min Rain = 0
KCL2 211221Z 15007KT 06/M01 A2991 RMK A01 T00581005  RH  064%=      5-min Rain = 0
KCL2 211222Z 14007KT 06/M01 A2991 RMK A01 T00581005  RH  064%=      5-min Rain = 0
KCL2 211223Z 14007KT 06/M01 A2991 RMK A01 T00581005  RH  064%=      5-min Rain = 0
KCL2 211224Z 14009KT 06/M01 A2992 RMK A01 T00581005  RH  064%=      5-min Rain = 0
KCL2 211225Z 14008KT 06/M00 A2992 RMK A01 T00581004  RH  064%=      5-min Rain = 0
KCL2 211226Z 14008KT 06/M01 A2992 RMK A01 T00581005  RH  064%=      5-min Rain = 0
KCL2 211227Z 14007KT 06/M00 A2992 RMK A01 T00591004  RH  064%=      5-min Rain = 0
KCL2 211228Z 15007KT 06/M00 A2992 RMK A01 T00581004  RH  064%=      5-min Rain = 0
KCL2 211229Z 14006KT 06/M00 A2991 RMK A01 T00581004  RH  064%=      5-min Rain = 0
KCL2 211230Z 14006KT 06/M00 A2991 RMK A01 T00581004  RH  064%=      5-min Rain = 0
KCL2 211231Z 14008KT 06/M00 A2992 RMK A01 T00571004  RH  065%=      5-min Rain = 0
KCL2 211232Z 14009KT 06/M00 A2992 RMK A01 T00571004  RH  065%=      5-min Rain = 0
KCL2 211233Z 14009KT 06/M00 A2992 RMK A01 T00571004  RH  065%=      5-min Rain = 0
KCL2 211234Z 14008KT 06/M00 A2992 RMK A01 T00571004  RH  065%=      5-min Rain = 0
KCL2 211235Z 14008KT 06/M00 A2992 RMK A01 T00581003  RH  065%=      5-min Rain = 0
KCL2 211236Z 14009KT 06/M00 A2992 RMK A01 T00581003  RH  065%=      5-min Rain = 0
KCL2 211237Z 14007KT 06/M00 A2992 RMK A01 T00581004  RH  065%=      5-min Rain = 0
KCL2 211238Z 14009KT 06/M00 A2992 RMK A01 T00581003  RH  065%=      5-min Rain = 0
KCL2 211239Z 14008KT 06/M00 A2992 RMK A01 T00581003  RH  065%=      5-min Rain = 0
KCL2 211240Z 14009KT 06/M00 A2992 RMK A01 T00581003  RH  065%=      5-min Rain = 0
KCL2 211241Z 14009KT 06/M00 A2992 RMK A01 T00591003  RH  065%=      5-min Rain = 0
KCL2 211242Z 14007KT 06/M00 A2992 RMK A01 T00591003  RH  065%=      5-min Rain = 0
KCL2 211243Z 14008KT 06/M00 A2992 RMK A01 T00591003  RH  065%=      5-min Rain = 0
KCL2 211244Z 14008KT 06/M00 A2992 RMK A01 T00591002  RH  065%=      5-min Rain = 0
KCL2 211245Z 14009KT 06/M00 A2992 RMK A01 T00581003  RH  065%=      5-min Rain = 0
KCL2 211246Z 14008KT 06/M00 A2992 RMK A01 T00581003  RH  065%=      5-min Rain = 0
KCL2 211247Z 14009KT 06/M00 A2992 RMK A01 T00581003  RH  065%=      5-min Rain = 0
KCL2 211248Z 14009KT 06/M00 A2992 RMK A01 T00581003  RH  065%=      5-min Rain = 0
KCL2 211249Z 14011KT 06/M00 A2992 RMK A01 T00581003  RH  065%=      5-min Rain = 0
KCL2 211250Z 14010KT 06/M00 A2992 RMK A01 T00581003  RH  065%=      5-min Rain = 0
KCL2 211251Z 14011KT 06/M00 A2992 RMK A01 T00591003  RH  065%=      5-min Rain = 0
KCL2 211252Z 14011KT 06/M00 A2993 RMK A01 T00591002  RH  065%=      5-min Rain = 0
KCL2 211253Z 14009KT 06/M00 A2993 RMK A01 T00591003  RH  065%=      5-min Rain = 0
KCL2 211254Z 14010KT 06/M00 A2992 RMK A01 T00591002  RH  065%=      5-min Rain = 0
KCL2 211255Z 15011KT 06/M00 A2992 RMK A01 T00591002  RH  065%=      5-min Rain = 0
KCL2 211256Z 14012KT 06/M00 A2992 RMK A01 T00581002  RH  065%=      5-min Rain = 0
KCL2 211257Z 14009KT 06/M00 A2992 RMK A01 T00591002  RH  065%=      5-min Rain = 0
KCL2 211258Z 15011KT 06/M00 A2992 RMK A01 T00591002  RH  065%=      5-min Rain = 0
KCL2 211259Z 15012KT 06/M00 A2992 RMK A01 T00591002  RH  065%=      5-min Rain = 0
KCL2 211300Z 14012KT 06/M00 A2992 RMK A01 T00591002  RH  065%=      5-min Rain = 0
KCL2 211301Z 14012KT 06/M00 A2992 RMK A01 T00591002  RH  065%=      5-min Rain = 0
KCL2 211302Z 14011KT 06/M00 A2992 RMK A01 T00591002  RH  065%=      5-min Rain = 0
KCL2 211303Z 14012KT 06/M00 A2992 RMK A01 T00591002  RH  065%=      5-min Rain = 0
KCL2 211304Z 15013KT 06/M00 A2992 RMK A01 T00581002  RH  065%=      5-min Rain = 0
KCL2 211305Z 14012KT 06/M00 A2992 RMK A01 T00591001  RH  065%=      5-min Rain = 0
KCL2 211306Z 15011G18KT 06/M00 A2992 RMK A01 T00591001  RH  065%=      5-min Rain = 0
KCL2 211307Z 15010KT 06/M00 A2992 RMK A01 T00591001  RH  065%=      5-min Rain = 0
KCL2 211308Z 14010KT 06/M00 A2992 RMK A01 T00591001  RH  065%=      5-min Rain = 0
KCL2 211309Z 14011KT 06/M00 A2992 RMK A01 T00591001  RH  066%=      5-min Rain = 0
KCL2 211310Z 14010KT 06/M00 A2992 RMK A01 T00591001  RH  066%=      5-min Rain = 0
KCL2 211311Z 14009KT 06/M00 A2992 RMK A01 T00591001  RH  066%=      5-min Rain = 0
KCL2 211312Z 14011KT 06/M00 A2992 RMK A01 T00591001  RH  066%=      5-min Rain = 0
KCL2 211313Z 14010KT 06/M00 A2992 RMK A01 T00581001  RH  066%=      5-min Rain = 0
KCL2 211314Z 14009KT 06/M00 A2992 RMK A01 T00591001  RH  066%=      5-min Rain = 0
KCL2 211315Z 14011KT 06/M00 A2992 RMK A01 T00581001  RH  066%=      5-min Rain = 0
KCL2 211316Z 14010KT 06/M00 A2992 RMK A01 T00581001  RH  066%=      5-min Rain = 0
KCL2 211317Z 14011KT 06/M00 A2992 RMK A01 T00591001  RH  066%=      5-min Rain = 0
KCL2 211318Z 14011KT 06/M00 A2992 RMK A01 T00591001  RH  066%=      5-min Rain = 0
KCL2 211319Z 14011KT 06/00 A2992 RMK A01 T005900-0  RH  066%=      5-min Rain = 0
KCL2 211320Z 14012KT 06/00 A2992 RMK A01 T005900-0  RH  066%=      5-min Rain = 0
KCL2 211321Z 14012KT 06/00 A2992 RMK A01 T005900-0  RH  066%=      5-min Rain = 0
KCL2 211322Z 14010KT 06/00 A2992 RMK A01 T005900-0  RH  066%=      5-min Rain = 0
KCL2 211323Z 14012KT 06/00 A2992 RMK A01 T005900-0  RH  066%=      5-min Rain = 0
KCL2 211324Z 14010KT 06/00 A2992 RMK A01 T00600000  RH  066%=      5-min Rain = 0
KCL2 211325Z 14010KT 06/00 A2992 RMK A01 T00590000  RH  066%=      5-min Rain = 0
KCL2 211326Z 14011KT 06/00 A2992 RMK A01 T00600000  RH  066%=      5-min Rain = 0
KCL2 211327Z 14011KT 06/00 A2992 RMK A01 T00600000  RH  066%=      5-min Rain = 0
KCL2 211328Z 14012KT 06/00 A2991 RMK A01 T00600000  RH  066%=      5-min Rain = 0
KCL2 211329Z 14014KT 06/00 A2991 RMK A01 T005900-0  RH  066%=      5-min Rain = 0
KCL2 211330Z 14012KT 06/00 A2992 RMK A01 T00600000  RH  066%=      5-min Rain = 0
KCL2 211331Z 14013KT 06/00 A2992 RMK A01 T00600000  RH  065%=      5-min Rain = 0
KCL2 211332Z 14010KT 06/00 A2992 RMK A01 T00600000  RH  065%=      5-min Rain = 0
KCL2 211333Z 14012KT 06/00 A2992 RMK A01 T00600001  RH  066%=      5-min Rain = 0
KCL2 211334Z 13012KT 06/00 A2992 RMK A01 T00600001  RH  066%=      5-min Rain = 0
KCL2 211335Z 13012KT 06/00 A2992 RMK A01 T00600001  RH  066%=      5-min Rain = 0
KCL2 211336Z 14012KT 06/00 A2992 RMK A01 T00600001  RH  066%=      5-min Rain = 0
KCL2 211337Z 14013KT 06/00 A2992 RMK A01 T00600001  RH  066%=      5-min Rain = 0
KCL2 211338Z 14010KT 06/00 A2992 RMK A01 T00600001  RH  066%=      5-min Rain = 0
KCL2 211339Z 13012G17KT 06/00 A2992 RMK A01 T00610002  RH  066%=      5-min Rain = 0
KCL2 211340Z 14012KT 06/00 A2992 RMK A01 T00610002  RH  066%=      5-min Rain = 0
KCL2 211341Z 14013KT 06/00 A2992 RMK A01 T00620002  RH  066%=      5-min Rain = 0
KCL2 211342Z 14013KT 06/00 A2992 RMK A01 T00620003  RH  066%=      5-min Rain = 0
KCL2 211343Z 14013KT 06/00 A2992 RMK A01 T00620003  RH  066%=      5-min Rain = 0
KCL2 211344Z 14013KT 06/00 A2992 RMK A01 T00630003  RH  066%=      5-min Rain = 0
KCL2 211345Z 14012G17KT 06/00 A2992 RMK A01 T00630004  RH  066%=      5-min Rain = 0
KCL2 211346Z 14012KT 06/00 A2992 RMK A01 T00640004  RH  066%=      5-min Rain = 0
KCL2 211347Z 14013KT 06/00 A2992 RMK A01 T00640004  RH  066%=      5-min Rain = 0
KCL2 211348Z 14013KT 07/01 A2992 RMK A01 T00650005  RH  065%=      5-min Rain = 0
KCL2 211349Z 14010KT 07/01 A2992 RMK A01 T00650005  RH  065%=      5-min Rain = 0
KCL2 211350Z 14013KT 07/01 A2992 RMK A01 T00650005  RH  065%=      5-min Rain = 0
KCL2 211351Z 14012KT 07/01 A2992 RMK A01 T00660005  RH  065%=      5-min Rain = 0
KCL2 211352Z 14012KT 07/01 A2992 RMK A01 T00660005  RH  065%=      5-min Rain = 0
KCL2 211353Z 13012G17KT 07/01 A2992 RMK A01 T00660005  RH  065%=      5-min Rain = 0
KCL2 211354Z 13012KT 07/01 A2992 RMK A01 T00660005  RH  065%=      5-min Rain = 0
KCL2 211355Z 14011KT 07/01 A2992 RMK A01 T00670005  RH  065%=      5-min Rain = 0
KCL2 211356Z 14013KT 07/01 A2992 RMK A01 T00670006  RH  065%=      5-min Rain = 0
KCL2 211357Z 13014KT 07/01 A2992 RMK A01 T00670005  RH  065%=      5-min Rain = 0
KCL2 211358Z 14014KT 07/01 A2992 RMK A01 T00670005  RH  065%=      5-min Rain = 0
KCL2 211359Z 13013KT 07/01 A2992 RMK A01 T00680006  RH  065%=      5-min Rain = 0
KCL2 211400Z 13013KT 07/01 A2992 RMK A01 T00670005  RH  065%=      5-min Rain = 0
KCL2 211401Z 13013KT 07/01 A2992 RMK A01 T00670006  RH  065%=      5-min Rain = 0
KCL2 211402Z 13014KT 07/01 A2992 RMK A01 T00670006  RH  065%=      5-min Rain = 0
KCL2 211403Z 14012KT 07/01 A2992 RMK A01 T00670006  RH  065%=      5-min Rain = 0
KCL2 211404Z 14011KT 07/01 A2992 RMK A01 T00680006  RH  065%=      5-min Rain = 0
KCL2 211405Z 14012KT 07/01 A2993 RMK A01 T00680006  RH  065%=      5-min Rain = 0
KCL2 211406Z 13010KT 07/01 A2993 RMK A01 T00680006  RH  065%=      5-min Rain = 0
KCL2 211407Z 15008KT 07/01 A2993 RMK A01 T00680006  RH  065%=      5-min Rain = 0
KCL2 211408Z 14012KT 07/01 A2993 RMK A01 T00680006  RH  065%=      5-min Rain = 0
KCL2 211409Z 14013KT 07/01 A2993 RMK A01 T00680006  RH  064%=      5-min Rain = 0
KCL2 211410Z 14012KT 07/01 A2993 RMK A01 T00690006  RH  064%=      5-min Rain = 0
KCL2 211411Z 15011KT 07/01 A2994 RMK A01 T00690006  RH  064%=      5-min Rain = 0
KCL2 211412Z 15010KT 07/01 A2994 RMK A01 T00690007  RH  064%=      5-min Rain = 0
KCL2 211413Z 15009KT 07/01 A2994 RMK A01 T00690006  RH  064%=      5-min Rain = 0
KCL2 211414Z 14010KT 07/01 A2995 RMK A01 T00700007  RH  064%=      5-min Rain = 0
KCL2 211415Z 14008KT 07/01 A2995 RMK A01 T00700007  RH  064%=      5-min Rain = 0
KCL2 211416Z 16008KT 07/01 A2995 RMK A01 T00700007  RH  064%=      5-min Rain = 0
KCL2 211417Z 16011KT 07/01 A2995 RMK A01 T00700007  RH  064%=      5-min Rain = 0
KCL2 211418Z 15011KT 07/01 A2996 RMK A01 T00700007  RH  064%=      5-min Rain = 0
KCL2 211419Z 15012KT 07/01 A2996 RMK A01 T00700006  RH  064%=      5-min Rain = 0
KCL2 211420Z 14010KT 07/01 A2995 RMK A01 T00700006  RH  064%=      5-min Rain = 0
KCL2 211421Z 13010KT 07/01 A2995 RMK A01 T00700007  RH  064%=      5-min Rain = 0
KCL2 211422Z 14011KT 07/01 A2995 RMK A01 T00710007  RH  064%=      5-min Rain = 0
KCL2 211423Z 14012KT 07/01 A2995 RMK A01 T00700007  RH  064%=      5-min Rain = 0
KCL2 211424Z 14014KT 07/01 A2994 RMK A01 T00700007  RH  064%=      5-min Rain = 0
KCL2 211425Z 14011KT 07/01 A2994 RMK A01 T00710007  RH  064%=      5-min Rain = 0
KCL2 211426Z 13013KT 07/01 A2994 RMK A01 T00700007  RH  064%=      5-min Rain = 0
KCL2 211427Z 13014KT 07/01 A2994 RMK A01 T00710007  RH  064%=      5-min Rain = 0
KCL2 211428Z 14015KT 07/01 A2994 RMK A01 T00710007  RH  064%=      5-min Rain = 0
KCL2 211429Z 14013KT 07/01 A2994 RMK A01 T00710008  RH  064%=      5-min Rain = 0
KCL2 211430Z 14013KT 07/01 A2994 RMK A01 T00710008  RH  064%=      5-min Rain = 0
KCL2 211431Z 13015KT 07/01 A2994 RMK A01 T00710008  RH  064%=      5-min Rain = 0
KCL2 211432Z 14014KT 07/01 A2994 RMK A01 T00710007  RH  064%=      5-min Rain = 0
KCL2 211433Z 14014KT 07/01 A2994 RMK A01 T00710008  RH  064%=      5-min Rain = 0
KCL2 211434Z 14014G19KT 07/01 A2995 RMK A01 T00720008  RH  064%=      5-min Rain = 0
KCL2 211435Z 14014KT 07/01 A2994 RMK A01 T00720008  RH  064%=      5-min Rain = 0
KCL2 211436Z 13017KT 07/01 A2994 RMK A01 T00720008  RH  064%=      5-min Rain = 0
KCL2 211437Z 14015KT 07/01 A2994 RMK A01 T00730008  RH  064%=      5-min Rain = 0
KCL2 211438Z 14014KT 07/01 A2994 RMK A01 T00730008  RH  064%=      5-min Rain = 0
KCL2 211439Z 14014KT 07/01 A2994 RMK A01 T00730009  RH  064%=      5-min Rain = 0
KCL2 211440Z 13016KT 07/01 A2994 RMK A01 T00730008  RH  063%=      5-min Rain = 0
KCL2 211441Z 14016KT 07/01 A2994 RMK A01 T00740008  RH  063%=      5-min Rain = 0
KCL2 211442Z 13016KT 07/01 A2994 RMK A01 T00740008  RH  063%=      5-min Rain = 0
KCL2 211443Z 14014KT 07/01 A2994 RMK A01 T00740009  RH  063%=      5-min Rain = 0
KCL2 211444Z 14014KT 07/01 A2994 RMK A01 T00740009  RH  063%=      5-min Rain = 0
KCL2 211445Z 13015KT 07/01 A2994 RMK A01 T00740009  RH  063%=      5-min Rain = 0
KCL2 211446Z 13016KT 07/01 A2994 RMK A01 T00740009  RH  063%=      5-min Rain = 0
KCL2 211447Z 14014G20KT 07/01 A2994 RMK A01 T00740009  RH  063%=      5-min Rain = 0
KCL2 211448Z 13017KT 08/01 A2994 RMK A01 T00750009  RH  063%=      5-min Rain = 0
KCL2 211449Z 13015KT 08/01 A2994 RMK A01 T00750008  RH  063%=      5-min Rain = 0
KCL2 211450Z 13017G22KT 08/01 A2994 RMK A01 T00750009  RH  063%=      5-min Rain = 0
KCL2 211451Z 14014KT 08/01 A2994 RMK A01 T00750009  RH  063%=      5-min Rain = 0
KCL2 211452Z 13016KT 08/01 A2994 RMK A01 T00760010  RH  063%=      5-min Rain = 0
KCL2 211453Z 14015KT 08/01 A2994 RMK A01 T00760010  RH  063%=      5-min Rain = 0
KCL2 211454Z 14016KT 08/01 A2994 RMK A01 T00760010  RH  063%=      5-min Rain = 0
KCL2 211455Z 13015KT 08/01 A2995 RMK A01 T00760010  RH  063%=      5-min Rain = 0
KCL2 211456Z 13014KT 08/01 A2995 RMK A01 T00770010  RH  063%=      5-min Rain = 0
KCL2 211457Z 14013KT 08/01 A2995 RMK A01 T00770010  RH  063%=      5-min Rain = 0
KCL2 211458Z 14010KT 08/01 A2995 RMK A01 T00770010  RH  063%=      5-min Rain = 0
KCL2 211459Z 14012KT 08/01 A2995 RMK A01 T00770011  RH  063%=      5-min Rain = 0
KCL2 211500Z 13012KT 08/01 A2995 RMK A01 T00780011  RH  063%=      5-min Rain = 0
KCL2 211501Z 14011KT 08/01 A2995 RMK A01 T00780011  RH  063%=      5-min Rain = 0
KCL2 211502Z 14012KT 08/01 A2995 RMK A01 T00790012  RH  063%=      5-min Rain = 0
KCL2 211503Z 14012KT 08/01 A2995 RMK A01 T00790012  RH  063%=      5-min Rain = 0
KCL2 211504Z 14017KT 08/01 A2995 RMK A01 T00780011  RH  063%=      5-min Rain = 0
KCL2 211505Z 14018KT 08/01 A2995 RMK A01 T00780011  RH  063%=      5-min Rain = 0
KCL2 211506Z 14014KT 08/01 A2995 RMK A01 T00780011  RH  063%=      5-min Rain = 0
KCL2 211507Z 13013G18KT 08/01 A2995 RMK A01 T00790012  RH  063%=      5-min Rain = 0
KCL2 211508Z 14013KT 08/01 A2995 RMK A01 T00790013  RH  063%=      5-min Rain = 0
KCL2 211509Z 14013KT 08/01 A2995 RMK A01 T00800013  RH  063%=      5-min Rain = 0
KCL2 211510Z 14014KT 08/01 A2995 RMK A01 T00800013  RH  063%=      5-min Rain = 0
KCL2 211511Z 13014KT 08/01 A2995 RMK A01 T00800013  RH  063%=      5-min Rain = 0
KCL2 211512Z 13015KT 08/01 A2994 RMK A01 T00810013  RH  063%=      5-min Rain = 0
KCL2 211513Z 13014KT 08/01 A2994 RMK A01 T00810013  RH  062%=      5-min Rain = 0
KCL2 211514Z 13015KT 08/01 A2994 RMK A01 T00820014  RH  062%=      5-min Rain = 0
KCL2 211515Z 14015KT 08/01 A2993 RMK A01 T00820014  RH  062%=      5-min Rain = 0
KCL2 211516Z 13015KT 08/01 A2993 RMK A01 T00830014  RH  062%=      5-min Rain = 0
KCL2 211517Z 14018KT 08/01 A2993 RMK A01 T00820014  RH  062%=      5-min Rain = 0
KCL2 211518Z 13015KT 08/01 A2994 RMK A01 T00830014  RH  062%=      5-min Rain = 0
KCL2 211519Z 13013KT 08/01 A2994 RMK A01 T00820013  RH  062%=      5-min Rain = 0
KCL2 211520Z 13013G19KT 08/01 A2994 RMK A01 T00830014  RH  062%=      5-min Rain = 0
KCL2 211521Z 13013KT 08/02 A2994 RMK A01 T00830015  RH  062%=      5-min Rain = 0
KCL2 211522Z 13013KT 08/02 A2995 RMK A01 T00840015  RH  062%=      5-min Rain = 0
KCL2 211523Z 14015G20KT 08/01 A2995 RMK A01 T00840014  RH  062%=      5-min Rain = 0
KCL2 211524Z 14014G19KT 08/01 A2995 RMK A01 T00840014  RH  062%=      5-min Rain = 0
KCL2 211525Z 14012KT 08/02 A2995 RMK A01 T00840015  RH  062%=      5-min Rain = 0
KCL2 211526Z 13014KT 08/02 A2995 RMK A01 T00840015  RH  062%=      5-min Rain = 0
KCL2 211527Z 14014KT 09/02 A2995 RMK A01 T00850016  RH  062%=      5-min Rain = 0
KCL2 211528Z 14014KT 08/02 A2995 RMK A01 T00840015  RH  062%=      5-min Rain = 0
KCL2 211529Z 14012KT 08/02 A2996 RMK A01 T00840015  RH  062%=      5-min Rain = 0
KCL2 211530Z 13014KT 09/02 A2996 RMK A01 T00850016  RH  062%=      5-min Rain = 0
KCL2 211531Z 13014KT 09/02 A2996 RMK A01 T00860016  RH  061%=      5-min Rain = 0
KCL2 211532Z 13016KT 09/02 A2996 RMK A01 T00860016  RH  061%=      5-min Rain = 0
KCL2 211533Z 14014KT 09/02 A2996 RMK A01 T00860015  RH  061%=      5-min Rain = 0
KCL2 211534Z 14015KT 09/02 A2996 RMK A01 T00860015  RH  061%=      5-min Rain = 0
KCL2 211535Z 13015KT 09/02 A2995 RMK A01 T00860016  RH  061%=      5-min Rain = 0
KCL2 211536Z 14015G20KT 09/02 A2995 RMK A01 T00860015  RH  061%=      5-min Rain = 0
KCL2 211537Z 14017KT 09/02 A2995 RMK A01 T00860016  RH  061%=      5-min Rain = 0
KCL2 211538Z 14016KT 09/02 A2995 RMK A01 T00860016  RH  062%=      5-min Rain = 0
KCL2 211539Z 13017G22KT 09/02 A2995 RMK A01 T00860016  RH  061%=      5-min Rain = 0
KCL2 211540Z 14015KT 09/02 A2995 RMK A01 T00860016  RH  061%=      5-min Rain = 0
KCL2 211541Z 14015KT 09/02 A2995 RMK A01 T00860016  RH  061%=      5-min Rain = 0
KCL2 211542Z 13015KT 09/02 A2995 RMK A01 T00860016  RH  062%=      5-min Rain = 0
KCL2 211543Z 14013KT 09/02 A2995 RMK A01 T00870017  RH  061%=      5-min Rain = 0
KCL2 211544Z 14013KT 09/02 A2995 RMK A01 T00870017  RH  061%=      5-min Rain = 0
KCL2 211545Z 13013KT 09/02 A2995 RMK A01 T00880017  RH  061%=      5-min Rain = 0
KCL2 211546Z 13016KT 09/02 A2995 RMK A01 T00880017  RH  061%=      5-min Rain = 0
KCL2 211547Z 14014KT 09/02 A2995 RMK A01 T00880017  RH  061%=      5-min Rain = 0
KCL2 211548Z 13011KT 09/02 A2996 RMK A01 T00880017  RH  061%=      5-min Rain = 0
KCL2 211549Z 14012KT 09/02 A2996 RMK A01 T00880018  RH  061%=      5-min Rain = 0
KCL2 211550Z 14012KT 09/02 A2995 RMK A01 T00880018  RH  061%=      5-min Rain = 0
KCL2 211551Z 13011KT 09/02 A2995 RMK A01 T00880018  RH  061%=      5-min Rain = 0
KCL2 211552Z 13010KT 09/02 A2995 RMK A01 T00890018  RH  061%=      5-min Rain = 0
KCL2 211553Z 13012KT 09/02 A2996 RMK A01 T00900018  RH  061%=      5-min Rain = 0
KCL2 211554Z 13011KT 09/02 A2996 RMK A01 T00900018  RH  060%=      5-min Rain = 0
KCL2 211555Z 14012KT 09/02 A2996 RMK A01 T00900018  RH  061%=      5-min Rain = 0
KCL2 211556Z 13014KT 09/02 A2995 RMK A01 T00900018  RH  060%=      5-min Rain = 0
KCL2 211557Z 13015KT 09/02 A2995 RMK A01 T00900017  RH  060%=      5-min Rain = 0
KCL2 211558Z 14015KT 09/02 A2995 RMK A01 T00900015  RH  059%=      5-min Rain = 0
KCL2 211559Z 13013KT 09/02 A2996 RMK A01 T00890015  RH  059%=      5-min Rain = 0
KCL2 211600Z 14014G20KT 09/02 A2996 RMK A01 T00900015  RH  060%=      5-min Rain = 0
KCL2 211601Z 14015KT 09/02 A2995 RMK A01 T00890015  RH  059%=      5-min Rain = 0
KCL2 211602Z 14015KT 09/02 A2996 RMK A01 T00890015  RH  060%=      5-min Rain = 0
KCL2 211603Z 14015KT 09/01 A2996 RMK A01 T00900014  RH  059%=      5-min Rain = 0
KCL2 211604Z 13017KT 09/01 A2996 RMK A01 T00900014  RH  059%=      5-min Rain = 0
KCL2 211605Z 14015KT 09/02 A2995 RMK A01 T00900015  RH  059%=      5-min Rain = 0
KCL2 211606Z 15016G21KT 09/01 A2995 RMK A01 T00900014  RH  059%=      5-min Rain = 0
KCL2 211607Z 15015KT 09/01 A2995 RMK A01 T00900013  RH  059%=      5-min Rain = 0
KCL2 211608Z 14016KT 09/01 A2995 RMK A01 T00900013  RH  058%=      5-min Rain = 0
KCL2 211609Z 14016KT 09/01 A2996 RMK A01 T00900012  RH  058%=      5-min Rain = 0
KCL2 211610Z 14014KT 09/01 A2996 RMK A01 T00910010  RH  057%=      5-min Rain = 0
KCL2 211611Z 14014KT 09/01 A2996 RMK A01 T00910011  RH  057%=      5-min Rain = 0
KCL2 211612Z 14011KT 09/01 A2996 RMK A01 T00910011  RH  057%=      5-min Rain = 0
KCL2 211613Z 14010KT 09/01 A2996 RMK A01 T00920013  RH  058%=      5-min Rain = 0
KCL2 211614Z 13013KT 09/01 A2996 RMK A01 T00930013  RH  057%=      5-min Rain = 0
KCL2 211615Z 14012KT 09/01 A2995 RMK A01 T00930010  RH  056%=      5-min Rain = 0
KCL2 211616Z 14013KT 09/01 A2995 RMK A01 T00940011  RH  056%=      5-min Rain = 0
KCL2 211617Z 13010KT 09/01 A2995 RMK A01 T00940010  RH  056%=      5-min Rain = 0
KCL2 211618Z 14010KT 09/01 A2995 RMK A01 T00940010  RH  056%=      5-min Rain = 0
KCL2 211619Z 14015KT 10/01 A2995 RMK A01 T00950009  RH  055%=      5-min Rain = 0
KCL2 211620Z 13017KT 10/01 A2996 RMK A01 T00950006  RH  054%=      5-min Rain = 0
KCL2 211621Z 14015G20KT 09/01 A2996 RMK A01 T00940005  RH  054%=      5-min Rain = 0
KCL2 211622Z 14016G21KT 09/00 A2996 RMK A01 T00940002  RH  052%=      5-min Rain = 0
KCL2 211623Z 13016KT 09/00 A2996 RMK A01 T00940001  RH  052%=      5-min Rain = 0
KCL2 211624Z 13015KT 09/00 A2996 RMK A01 T00940002  RH  053%=      5-min Rain = 0
KCL2 211625Z 14016KT 09/00 A2995 RMK A01 T00940001  RH  052%=      5-min Rain = 0
KCL2 211626Z 13016KT 09/00 A2995 RMK A01 T00940001  RH  052%=      5-min Rain = 0
KCL2 211627Z 13016G21KT 09/00 A2995 RMK A01 T00940000  RH  052%=      5-min Rain = 0
KCL2 211628Z 13014G19KT 09/00 A2995 RMK A01 T00940000  RH  052%=      5-min Rain = 0
KCL2 211629Z 13015G21KT 10/00 A2995 RMK A01 T00950001  RH  052%=      5-min Rain = 0
KCL2 211630Z 13020KT 10/M00 A2995 RMK A01 T00951002  RH  050%=      5-min Rain = 0
KCL2 211631Z 14015KT 10/M00 A2995 RMK A01 T00961004  RH  050%=      5-min Rain = 0
KCL2 211632Z 13016G21KT 10/M00 A2995 RMK A01 T00951004  RH  050%=      5-min Rain = 0
KCL2 211633Z 14014KT 10/M00 A2995 RMK A01 T00961003  RH  050%=      5-min Rain = 0
KCL2 211634Z 14013KT 10/M00 A2995 RMK A01 T00961001  RH  051%=      5-min Rain = 0
KCL2 211635Z 14018G23KT 10/M00 A2995 RMK A01 T00971002  RH  050%=      5-min Rain = 0
KCL2 211636Z 14017KT 10/M00 A2995 RMK A01 T00971002  RH  050%=      5-min Rain = 0
KCL2 211637Z 14017KT 10/M00 A2995 RMK A01 T00971002  RH  050%=      5-min Rain = 0
KCL2 211638Z 14016G21KT 10/M00 A2995 RMK A01 T00981003  RH  050%=      5-min Rain = 0
KCL2 211639Z 13018KT 10/M00 A2995 RMK A01 T00981002  RH  050%=      5-min Rain = 0
KCL2 211640Z 13019KT 10/M00 A2995 RMK A01 T00971002  RH  050%=      5-min Rain = 0
KCL2 211641Z 13019KT 10/M00 A2995 RMK A01 T00981002  RH  050%=      5-min Rain = 0
KCL2 211642Z 14020KT 10/M00 A2995 RMK A01 T00981002  RH  050%=      5-min Rain = 0
KCL2 211643Z 14016KT 10/M00 A2995 RMK A01 T00981002  RH  050%=      5-min Rain = 0
KCL2 211644Z 13017KT 10/M00 A2995 RMK A01 T00981002  RH  050%=      5-min Rain = 0
KCL2 211645Z 14014KT 10/M00 A2995 RMK A01 T00991001  RH  050%=      5-min Rain = 0
KCL2 211646Z 13015KT 10/00 A2995 RMK A01 T009900-0  RH  050%=      5-min Rain = 0
KCL2 211647Z 14017KT 10/M00 A2995 RMK A01 T00991001  RH  050%=      5-min Rain = 0
KCL2 211648Z 14017KT 10/M00 A2995 RMK A01 T01001004  RH  049%=      5-min Rain = 0
KCL2 211649Z 14018KT 10/M01 A2995 RMK A01 T01001005  RH  048%=      5-min Rain = 0
KCL2 211650Z 14015KT 10/M01 A2995 RMK A01 T01001005  RH  048%=      5-min Rain = 0
KCL2 211651Z 13012KT 10/M00 A2995 RMK A01 T01011003  RH  049%=      5-min Rain = 0
KCL2 211652Z 13014KT 10/M00 A2995 RMK A01 T01021002  RH  048%=      5-min Rain = 0
KCL2 211653Z 13014KT 10/M00 A2995 RMK A01 T01031002  RH  048%=      5-min Rain = 0
KCL2 211654Z 13013KT 10/M00 A2995 RMK A01 T01041002  RH  048%=      5-min Rain = 0
KCL2 211655Z 12013KT 11/M01 A2995 RMK A01 T01051006  RH  046%=      5-min Rain = 0
KCL2 211656Z 13015G21KT 11/M01 A2995 RMK A01 T01071009  RH  044%=      5-min Rain = 0
KCL2 211657Z 13018KT 11/M01 A2995 RMK A01 T01071014  RH  043%=      5-min Rain = 0
KCL2 211658Z 13016G21KT 11/M02 A2995 RMK A01 T01061015  RH  043%=      5-min Rain = 0
KCL2 211659Z 13017G22KT 11/M02 A2995 RMK A01 T01061015  RH  043%=      5-min Rain = 0
KCL2 211700Z 13017KT 11/M02 A2994 RMK A01 T01061019  RH  042%=      5-min Rain = 0
KCL2 211701Z 13018G23KT 11/M02 A2994 RMK A01 T01061018  RH  042%=      5-min Rain = 0
KCL2 211702Z 13014KT 11/M02 A2994 RMK A01 T01061018  RH  042%=      5-min Rain = 0
KCL2 211703Z 13015KT 11/M02 A2994 RMK A01 T01061017  RH  042%=      5-min Rain = 0
KCL2 211704Z 13012KT 11/M01 A2994 RMK A01 T01081014  RH  043%=      5-min Rain = 0
KCL2 211705Z 13014KT 11/M01 A2994 RMK A01 T01091014  RH  042%=      5-min Rain = 0
KCL2 211706Z 12018KT 11/M02 A2994 RMK A01 T01101016  RH  041%=      5-min Rain = 0
KCL2 211707Z 12019KT 11/M02 A2994 RMK A01 T01101018  RH  041%=      5-min Rain = 0
KCL2 211708Z 12019KT 11/M02 A2994 RMK A01 T01091019  RH  041%=      5-min Rain = 0
KCL2 211709Z 12018KT 11/M02 A2993 RMK A01 T01081018  RH  041%=      5-min Rain = 0
KCL2 211710Z 12018KT 11/M02 A2993 RMK A01 T01081020  RH  041%=      5-min Rain = 0
KCL2 211711Z 13015KT 11/M02 A2993 RMK A01 T01091020  RH  041%=      5-min Rain = 0
KCL2 211712Z 12015KT 11/M02 A2993 RMK A01 T01101018  RH  041%=      5-min Rain = 0
KCL2 211713Z 13014KT 11/M02 A2993 RMK A01 T01111016  RH  041%=      5-min Rain = 0
KCL2 211714Z 12016G21KT 11/M02 A2993 RMK A01 T01111016  RH  041%=      5-min Rain = 0
KCL2 211715Z 13017KT 11/M02 A2993 RMK A01 T01111016  RH  041%=      5-min Rain = 0
KCL2 211716Z 13016KT 11/M01 A2993 RMK A01 T01101014  RH  042%=      5-min Rain = 0
KCL2 211717Z 13013KT 11/M02 A2994 RMK A01 T01111016  RH  041%=      5-min Rain = 0
KCL2 211718Z 14012KT 11/M01 A2994 RMK A01 T01111014  RH  042%=      5-min Rain = 0
KCL2 211719Z 13015KT 11/M01 A2994 RMK A01 T01121014  RH  041%=      5-min Rain = 0
KCL2 211720Z 14013G18KT 11/M02 A2994 RMK A01 T01121016  RH  041%=      5-min Rain = 0
KCL2 211721Z 14013KT 11/M01 A2994 RMK A01 T01111014  RH  042%=      5-min Rain = 0
KCL2 211722Z 15015G22KT 11/M02 A2994 RMK A01 T01121016  RH  041%=      5-min Rain = 0
KCL2 211723Z 14012KT 11/M02 A2994 RMK A01 T01121018  RH  040%=      5-min Rain = 0
KCL2 211724Z 13011KT 11/M02 A2994 RMK A01 T01121017  RH  041%=      5-min Rain = 0
KCL2 211725Z 14012KT 11/M02 A2994 RMK A01 T01121017  RH  041%=      5-min Rain = 0
KCL2 211726Z 12010G15KT 11/M02 A2994 RMK A01 T01121016  RH  041%=      5-min Rain = 0
KCL2 211727Z 13016KT 11/M02 A2994 RMK A01 T01141016  RH  040%=      5-min Rain = 0
KCL2 211728Z 13016KT 11/M02 A2994 RMK A01 T01131019  RH  040%=      5-min Rain = 0
KCL2 211729Z 13015KT 11/M02 A2994 RMK A01 T01111023  RH  039%=      5-min Rain = 0
KCL2 211730Z 14015KT 11/M02 A2995 RMK A01 T01111020  RH  040%=      5-min Rain = 0
KCL2 211731Z 15012KT 11/M02 A2995 RMK A01 T01111019  RH  040%=      5-min Rain = 0
KCL2 211732Z 14013KT 11/M02 A2995 RMK A01 T01121018  RH  040%=      5-min Rain = 0
KCL2 211733Z 15014KT 11/M02 A2995 RMK A01 T01121019  RH  040%=      5-min Rain = 0
KCL2 211734Z 14012KT 11/M02 A2995 RMK A01 T01111020  RH  040%=      5-min Rain = 0
KCL2 211735Z 13011KT 11/M02 A2995 RMK A01 T01111018  RH  041%=      5-min Rain = 0
KCL2 211736Z 13010KT 11/M02 A2995 RMK A01 T01131015  RH  041%=      5-min Rain = 0
KCL2 211737Z 13011KT 12/M02 A2995 RMK A01 T01151015  RH  040%=      5-min Rain = 0
KCL2 211738Z 13014G19KT 12/M01 A2995 RMK A01 T01171013  RH  041%=      5-min Rain = 0
KCL2 211739Z 13012KT 12/M02 A2995 RMK A01 T01161015  RH  040%=      5-min Rain = 0
KCL2 211740Z 13017KT 12/M01 A2995 RMK A01 T01151013  RH  041%=      5-min Rain = 0
KCL2 211741Z 14014KT 12/M02 A2995 RMK A01 T01151015  RH  040%=      5-min Rain = 0
KCL2 211742Z 13017KT 11/M02 A2995 RMK A01 T01141016  RH  040%=      5-min Rain = 0
KCL2 211743Z 14015KT 11/M02 A2995 RMK A01 T01131016  RH  041%=      5-min Rain = 0
KCL2 211744Z 14013KT 11/M02 A2995 RMK A01 T01131015  RH  041%=      5-min Rain = 0
KCL2 211745Z 14013KT 11/M01 A2995 RMK A01 T01131014  RH  041%=      5-min Rain = 0
KCL2 211746Z 13012KT 11/M01 A2995 RMK A01 T01141012  RH  041%=      5-min Rain = 0
KCL2 211747Z 13015KT 12/M01 A2995 RMK A01 T01161011  RH  041%=      5-min Rain = 0
KCL2 211748Z 14012KT 12/M01 A2995 RMK A01 T01171011  RH  041%=      5-min Rain = 0
KCL2 211749Z 14013KT 12/M01 A2995 RMK A01 T01181011  RH  041%=      5-min Rain = 0
KCL2 211750Z 13012KT 12/M01 A2995 RMK A01 T01181012  RH  040%=      5-min Rain = 0
KCL2 211751Z 14014KT 12/M01 A2995 RMK A01 T01191012  RH  040%=      5-min Rain = 0
KCL2 211752Z 15013KT 12/M01 A2995 RMK A01 T01181014  RH  040%=      5-min Rain = 0
KCL2 211753Z 14012KT 12/M01 A2995 RMK A01 T01171012  RH  041%=      5-min Rain = 0
KCL2 211754Z 13011KT 12/M01 A2995 RMK A01 T01171009  RH  042%=      5-min Rain = 0
KCL2 211755Z 12013KT 12/M01 A2995 RMK A01 T01191007  RH  042%=      5-min Rain = 0
KCL2 211756Z 12014G19KT 12/M01 A2995 RMK A01 T01191011  RH  041%=      5-min Rain = 0
KCL2 211757Z 14014G19KT 12/M01 A2995 RMK A01 T01171012  RH  041%=      5-min Rain = 0
KCL2 211758Z 14015KT 12/M01 A2995 RMK A01 T01171014  RH  040%=      5-min Rain = 0
KCL2 211759Z 14014G19KT 12/M01 A2995 RMK A01 T01171014  RH  040%=      5-min Rain = 0
KCL2 211800Z 14015G21KT 12/M02 A2995 RMK A01 T01171016  RH  040%=      5-min Rain = 0
KCL2 211801Z 13014KT 12/M02 A2995 RMK A01 T01161016  RH  040%=      5-min Rain = 0
KCL2 211802Z 14015KT 12/M02 A2994 RMK A01 T01161015  RH  040%=      5-min Rain = 0
KCL2 211803Z 13017KT 12/M02 A2994 RMK A01 T01171017  RH  039%=      5-min Rain = 0
KCL2 211804Z 13015KT 12/M02 A2995 RMK A01 T01171019  RH  039%=      5-min Rain = 0
KCL2 211805Z 14015KT 12/M02 A2995 RMK A01 T01181020  RH  038%=      5-min Rain = 0
KCL2 211806Z 13012KT 12/M02 A2995 RMK A01 T01191019  RH  038%=      5-min Rain = 0
KCL2 211807Z 14011G17KT 12/M02 A2995 RMK A01 T01231015  RH  038%=      5-min Rain = 0
KCL2 211808Z 15014KT 12/M02 A2994 RMK A01 T01241017  RH  037%=      5-min Rain = 0
KCL2 211809Z 14015KT 12/M02 A2994 RMK A01 T01231020  RH  037%=      5-min Rain = 0
KCL2 211810Z 14012KT 12/M02 A2994 RMK A01 T01221018  RH  038%=      5-min Rain = 0
KCL2 211811Z 14014KT 12/M02 A2994 RMK A01 T01241017  RH  037%=      5-min Rain = 0
KCL2 211812Z 13018KT 12/M02 A2994 RMK A01 T01241019  RH  037%=      5-min Rain = 0
KCL2 211813Z 13017KT 12/M02 A2994 RMK A01 T01211020  RH  037%=      5-min Rain = 0
KCL2 211814Z 14013KT 12/M02 A2994 RMK A01 T01211019  RH  038%=      5-min Rain = 0
KCL2 211815Z 15016KT 12/M02 A2994 RMK A01 T01231017  RH  038%=      5-min Rain = 0
KCL2 211816Z 16012G17KT 12/M02 A2994 RMK A01 T01231016  RH  038%=      5-min Rain = 0
KCL2 211817Z 15013KT 13/M01 A2994 RMK A01 T01251013  RH  038%=      5-min Rain = 0
KCL2 211818Z 16013KT 13/M01 A2994 RMK A01 T01261014  RH  038%=      5-min Rain = 0
KCL2 211819Z 14014KT 13/M01 A2994 RMK A01 T01271013  RH  038%=      5-min Rain = 0
KCL2 211820Z 13015KT 13/M02 A2994 RMK A01 T01281016  RH  037%=      5-min Rain = 0
KCL2 211821Z 15014KT 13/M02 A2994 RMK A01 T01281016  RH  037%=      5-min Rain = 0
KCL2 211822Z 15015KT 13/M02 A2994 RMK A01 T01271017  RH  037%=      5-min Rain = 0
KCL2 211823Z 14014KT 13/M02 A2994 RMK A01 T01261019  RH  037%=      5-min Rain = 0
KCL2 211824Z 15013KT 13/M02 A2994 RMK A01 T01261021  RH  036%=      5-min Rain = 0
KCL2 211825Z 14014G19KT 13/M02 A2994 RMK A01 T01261020  RH  036%=      5-min Rain = 0
KCL2 211826Z 14013KT 13/M02 A2994 RMK A01 T01261019  RH  037%=      5-min Rain = 0
KCL2 211827Z 15013G19KT 13/M02 A2994 RMK A01 T01261018  RH  037%=      5-min Rain = 0
KCL2 211828Z 15019KT 12/M02 A2994 RMK A01 T01241020  RH  037%=      5-min Rain = 0
KCL2 211829Z 14013KT 12/M02 A2994 RMK A01 T01231019  RH  037%=      5-min Rain = 0
KCL2 211830Z 14015G20KT 12/M02 A2993 RMK A01 T01241017  RH  037%=      5-min Rain = 0
KCL2 211831Z 14013KT 13/M02 A2993 RMK A01 T01261017  RH  037%=      5-min Rain = 0
KCL2 211832Z 14017KT 13/M02 A2994 RMK A01 T01281017  RH  037%=      5-min Rain = 0
KCL2 211833Z 13016KT 13/M02 A2994 RMK A01 T01261018  RH  037%=      5-min Rain = 0
KCL2 211834Z 15016KT 12/M02 A2994 RMK A01 T01241016  RH  038%=      5-min Rain = 0
KCL2 211835Z 15015G20KT 12/M01 A2994 RMK A01 T01241013  RH  039%=      5-min Rain = 0
KCL2 211836Z 14017KT 12/M01 A2994 RMK A01 T01231013  RH  039%=      5-min Rain = 0
KCL2 211837Z 15016KT 12/M01 A2993 RMK A01 T01231012  RH  039%=      5-min Rain = 0
KCL2 211838Z 15017G22KT 12/M01 A2993 RMK A01 T01241014  RH  038%=      5-min Rain = 0
KCL2 211839Z 14014G19KT 12/M02 A2992 RMK A01 T01241017  RH  037%=      5-min Rain = 0
KCL2 211840Z 14012KT 13/M02 A2993 RMK A01 T01261016  RH  038%=      5-min Rain = 0
KCL2 211841Z 15015KT 13/M01 A2993 RMK A01 T01281014  RH  037%=      5-min Rain = 0
KCL2 211842Z 16016KT 13/M01 A2993 RMK A01 T01281014  RH  037%=      5-min Rain = 0
KCL2 211843Z 14018KT 13/M01 A2993 RMK A01 T01281014  RH  037%=      5-min Rain = 0
KCL2 211844Z 14017KT 13/M01 A2993 RMK A01 T01261012  RH  038%=      5-min Rain = 0
KCL2 211845Z 15013KT 13/M01 A2993 RMK A01 T01261012  RH  039%=      5-min Rain = 0
KCL2 211846Z 14012G19KT 13/M01 A2993 RMK A01 T01281009  RH  039%=      5-min Rain = 0
KCL2 211847Z 15015KT 13/M01 A2992 RMK A01 T01291013  RH  037%=      5-min Rain = 0
KCL2 211848Z 13014KT 13/M01 A2992 RMK A01 T01271014  RH  038%=      5-min Rain = 0
KCL2 211849Z 15017KT 13/M01 A2992 RMK A01 T01271014  RH  038%=      5-min Rain = 0
KCL2 211850Z 15015KT 13/M02 A2992 RMK A01 T01261016  RH  037%=      5-min Rain = 0
KCL2 211851Z 15015KT 13/M02 A2992 RMK A01 T01251016  RH  037%=      5-min Rain = 0
KCL2 211852Z 14014KT 13/M02 A2992 RMK A01 T01251016  RH  037%=      5-min Rain = 0
KCL2 211853Z 15015KT 13/M01 A2992 RMK A01 T01261014  RH  038%=      5-min Rain = 0
KCL2 211854Z 14013KT 12/M02 A2992 RMK A01 T01231016  RH  038%=      5-min Rain = 0
KCL2 211855Z 12015KT 12/M02 A2992 RMK A01 T01221015  RH  039%=      5-min Rain = 0
KCL2 211856Z 11015G20KT 12/M02 A2992 RMK A01 T01231021  RH  037%=      5-min Rain = 0
KCL2 211857Z 12015G20KT 12/M02 A2992 RMK A01 T01241022  RH  036%=      5-min Rain = 0
KCL2 211858Z 13012KT 12/M02 A2992 RMK A01 T01241023  RH  036%=      5-min Rain = 0
KCL2 211859Z 13012KT 13/M02 A2992 RMK A01 T01251024  RH  035%=      5-min Rain = 0
KCL2 211900Z 12013KT 13/M02 A2992 RMK A01 T01281024  RH  035%=      5-min Rain = 0
KCL2 211901Z 12015KT 13/M03 A2992 RMK A01 T01281028  RH  034%=      5-min Rain = 0
KCL2 211902Z 12015KT 13/M03 A2992 RMK A01 T01261030  RH  034%=      5-min Rain = 0
KCL2 211903Z 12016KT 12/M03 A2992 RMK A01 T01241029  RH  034%=      5-min Rain = 0
KCL2 211904Z 12014KT 12/M03 A2992 RMK A01 T01231028  RH  035%=      5-min Rain = 0
KCL2 211905Z 13012KT 12/M03 A2992 RMK A01 T01231028  RH  035%=      5-min Rain = 0
KCL2 211906Z 13012G17KT 12/M03 A2992 RMK A01 T01231028  RH  035%=      5-min Rain = 0
KCL2 211907Z 13013G18KT 12/M03 A2992 RMK A01 T01241026  RH  035%=      5-min Rain = 0
KCL2 211908Z 13011KT 12/M02 A2992 RMK A01 T01231024  RH  036%=      5-min Rain = 0
KCL2 211909Z 13009KT 12/M02 A2992 RMK A01 T01241023  RH  036%=      5-min Rain = 0
KCL2 211910Z 15012KT 13/M02 A2992 RMK A01 T01251023  RH  036%=      5-min Rain = 0
KCL2 211911Z 15014KT 13/M03 A2992 RMK A01 T01251026  RH  035%=      5-min Rain = 0
KCL2 211912Z 14013KT 12/M03 A2992 RMK A01 T01231025  RH  036%=      5-min Rain = 0
KCL2 211913Z 14014G19KT 12/M03 A2992 RMK A01 T01211030  RH  035%=      5-min Rain = 0
KCL2 211914Z 14016KT 12/M03 A2992 RMK A01 T01211030  RH  035%=      5-min Rain = 0
KCL2 211915Z 14017KT 12/M03 A2992 RMK A01 T01211030  RH  035%=      5-min Rain = 0
KCL2 211916Z 14015KT 12/M03 A2991 RMK A01 T01201031  RH  035%=      5-min Rain = 0
KCL2 211917Z 13015G20KT 12/M03 A2991 RMK A01 T01201029  RH  035%=      5-min Rain = 0
KCL2 211918Z 14015KT 12/M03 A2991 RMK A01 T01211029  RH  035%=      5-min Rain = 0
KCL2 211919Z 14014G19KT 12/M03 A2991 RMK A01 T01211027  RH  036%=      5-min Rain = 0
KCL2 211920Z 14014KT 12/M03 A2991 RMK A01 T01221026  RH  036%=      5-min Rain = 0
KCL2 211921Z 13016KT 12/M03 A2991 RMK A01 T01211027  RH  036%=      5-min Rain = 0
KCL2 211922Z 13017KT 12/M03 A299 RMK A01 T01201028  RH  035%=      5-min Rain = 0
KCL2 211923Z 12017KT 12/M03 A299 RMK A01 T01191026  RH  036%=      5-min Rain = 0
KCL2 211924Z 13018KT 12/M03 A299 RMK A01 T01191026  RH  036%=      5-min Rain = 0
KCL2 211925Z 12019KT 12/M03 A299 RMK A01 T01191025  RH  036%=      5-min Rain = 0
KCL2 211926Z 12015KT 12/M02 A299 RMK A01 T01191022  RH  037%=      5-min Rain = 0
KCL2 211927Z 12014KT 12/M02 A2989 RMK A01 T01211019  RH  038%=      5-min Rain = 0
KCL2 211928Z 11016KT 12/M02 A2989 RMK A01 T01221017  RH  038%=      5-min Rain = 0
KCL2 211929Z 12016KT 12/M02 A299 RMK A01 T01221018  RH  037%=      5-min Rain = 0
KCL2 211930Z 11014KT 12/M02 A299 RMK A01 T01211018  RH  038%=      5-min Rain = 0
KCL2 211931Z 12016KT 12/M02 A299 RMK A01 T01211018  RH  038%=      5-min Rain = 0
KCL2 211932Z 12014G19KT 12/M02 A299 RMK A01 T01211020  RH  037%=      5-min Rain = 0
KCL2 211933Z 10016KT 12/M02 A299 RMK A01 T01211020  RH  037%=      5-min Rain = 0
KCL2 211934Z 11015KT 12/M02 A299 RMK A01 T01211023  RH  037%=      5-min Rain = 0
KCL2 211935Z 11015KT 12/M02 A299 RMK A01 T01201023  RH  037%=      5-min Rain = 0
KCL2 211936Z 11015KT 12/M02 A299 RMK A01 T01201023  RH  037%=      5-min Rain = 0
KCL2 211937Z 11012KT 12/M02 A299 RMK A01 T01211022  RH  037%=      5-min Rain = 0
KCL2 211938Z 12013KT 12/M02 A299 RMK A01 T01221023  RH  036%=      5-min Rain = 0
KCL2 211939Z 12015KT 12/M02 A2991 RMK A01 T01231023  RH  036%=      5-min Rain = 0
KCL2 211940Z 11014KT 12/M02 A2991 RMK A01 T01221022  RH  037%=      5-min Rain = 0
KCL2 211941Z 10013G18KT 12/M02 A2991 RMK A01 T01221020  RH  037%=      5-min Rain = 0
KCL2 211942Z 11014KT 12/M02 A299 RMK A01 T01221020  RH  037%=      5-min Rain = 0
KCL2 211943Z 12015KT 12/M02 A2991 RMK A01 T01221022  RH  037%=      5-min Rain = 0
KCL2 211944Z 11013KT 12/M02 A299 RMK A01 T01221024  RH  036%=      5-min Rain = 0
KCL2 211945Z 12015KT 12/M03 A2991 RMK A01 T01231026  RH  035%=      5-min Rain = 0
KCL2 211946Z 12017KT 12/M03 A2991 RMK A01 T01231031  RH  034%=      5-min Rain = 0
KCL2 211947Z 11016KT 12/M03 A299 RMK A01 T01211031  RH  034%=      5-min Rain = 0
KCL2 211948Z 11015KT 12/M03 A299 RMK A01 T01201031  RH  035%=      5-min Rain = 0
KCL2 211949Z 13013KT 12/M03 A299 RMK A01 T01211031  RH  035%=      5-min Rain = 0
KCL2 211950Z 12011KT 12/M03 A2991 RMK A01 T01221031  RH  034%=      5-min Rain = 0
KCL2 211951Z 12013G18KT 12/M03 A2991 RMK A01 T01231028  RH  035%=      5-min Rain = 0
KCL2 211952Z 12014KT 12/M03 A2991 RMK A01 T01231028  RH  035%=      5-min Rain = 0
KCL2 211953Z 12011KT 12/M03 A2991 RMK A01 T01221027  RH  035%=      5-min Rain = 0
KCL2 211954Z 12010KT 12/M03 A2991 RMK A01 T01221026  RH  036%=      5-min Rain = 0
KCL2 211955Z 12015KT 12/M03 A2991 RMK A01 T01231027  RH  035%=      5-min Rain = 0
KCL2 211956Z 12014KT 12/M03 A299 RMK A01 T01211029  RH  035%=      5-min Rain = 0
KCL2 211957Z 12013KT 12/M03 A299 RMK A01 T01201033  RH  034%=      5-min Rain = 0
KCL2 211958Z 13011KT 12/M03 A299 RMK A01 T01201033  RH  034%=      5-min Rain = 0
KCL2 211959Z 12012KT 12/M03 A299 RMK A01 T01211030  RH  035%=      5-min Rain = 0
KCL2 212000Z 12010KT 12/M03 A299 RMK A01 T01221034  RH  034%=      5-min Rain = 0
KCL2 212001Z 13009KT 12/M03 A299 RMK A01 T01221032  RH  034%=      5-min Rain = 0
KCL2 212002Z 13015KT 12/M03 A299 RMK A01 T01241032  RH  033%=      5-min Rain = 0
KCL2 212003Z 13015KT 12/M04 A299 RMK A01 T01231039  RH  032%=      5-min Rain = 0
KCL2 212004Z 14015KT 12/M05 A299 RMK A01 T01211046  RH  031%=      5-min Rain = 0
KCL2 212005Z 13013KT 12/M05 A2989 RMK A01 T01191049  RH  030%=      5-min Rain = 0
KCL2 212006Z 13011KT 12/M05 A2989 RMK A01 T01191045  RH  031%=      5-min Rain = 0
KCL2 212007Z 13013KT 12/M04 A2989 RMK A01 T01211042  RH  032%=      5-min Rain = 0
KCL2 212008Z 13014KT 12/M04 A2989 RMK A01 T01221043  RH  031%=      5-min Rain = 0
KCL2 212009Z 13014KT 12/M04 A2989 RMK A01 T01211043  RH  031%=      5-min Rain = 0
KCL2 212010Z 13014KT 12/M05 A2989 RMK A01 T01211045  RH  031%=      5-min Rain = 0
KCL2 212011Z 13016KT 12/M05 A2989 RMK A01 T01201046  RH  031%=      5-min Rain = 0
KCL2 212012Z 14014KT 12/M05 A2989 RMK A01 T01191047  RH  031%=      5-min Rain = 0
KCL2 212013Z 14013KT 12/M04 A2989 RMK A01 T01191044  RH  032%=      5-min Rain = 0
KCL2 212014Z 14011KT 12/M04 A299 RMK A01 T01181040  RH  033%=      5-min Rain = 0
KCL2 212015Z 15012KT 12/M04 A299 RMK A01 T01191039  RH  033%=      5-min Rain = 0
KCL2 212016Z 16012KT 12/M04 A299 RMK A01 T01191040  RH  033%=      5-min Rain = 0
KCL2 212017Z 14011KT 12/M04 A299 RMK A01 T01201038  RH  033%=      5-min Rain = 0
KCL2 212018Z 13010G15KT 12/M04 A299 RMK A01 T01221036  RH  033%=      5-min Rain = 0
KCL2 212019Z 13012KT 12/M04 A299 RMK A01 T01241039  RH  032%=      5-min Rain = 0
KCL2 212020Z 12009KT 12/M04 A299 RMK A01 T01231041  RH  032%=      5-min Rain = 0
KCL2 212021Z 13008KT 12/M04 A299 RMK A01 T01231038  RH  032%=      5-min Rain = 0
KCL2 212022Z 12011G16KT 13/M04 A299 RMK A01 T01261035  RH  032%=      5-min Rain = 0
KCL2 212023Z 13014KT 13/M04 A299 RMK A01 T01271043  RH  030%=      5-min Rain = 0
KCL2 212024Z 13017KT 13/M05 A2989 RMK A01 T01251046  RH  030%=      5-min Rain = 0
KCL2 212025Z 13013KT 12/M05 A2989 RMK A01 T01241049  RH  030%=      5-min Rain = 0
KCL2 212026Z 13013KT 12/M05 A2989 RMK A01 T01241046  RH  030%=      5-min Rain = 0
KCL2 212027Z 13016KT 13/M05 A2989 RMK A01 T01261048  RH  029%=      5-min Rain = 0
KCL2 212028Z 11010KT 13/M05 A2989 RMK A01 T01251049  RH  029%=      5-min Rain = 0
KCL2 212029Z 11011KT 13/M05 A2989 RMK A01 T01261048  RH  029%=      5-min Rain = 0
KCL2 212030Z 13011KT 13/M05 A2989 RMK A01 T01261047  RH  030%=      5-min Rain = 0
KCL2 212031Z 14013KT 13/M05 A2989 RMK A01 T01261047  RH  030%=      5-min Rain = 0
KCL2 212032Z 13015KT 13/M05 A2989 RMK A01 T01251047  RH  030%=      5-min Rain = 0
KCL2 212033Z 13016KT 12/M05 A2989 RMK A01 T01231048  RH  030%=      5-min Rain = 0
KCL2 212034Z 13016KT 12/M05 A2989 RMK A01 T01221052  RH  029%=      5-min Rain = 0
KCL2 212035Z 13014KT 12/M05 A2989 RMK A01 T01211054  RH  029%=      5-min Rain = 0
KCL2 212036Z 12014KT 12/M05 A2989 RMK A01 T01201053  RH  029%=      5-min Rain = 0
KCL2 212037Z 13014KT 12/M05 A2989 RMK A01 T01211053  RH  029%=      5-min Rain = 0
KCL2 212038Z 13014KT 12/M05 A2989 RMK A01 T01211051  RH  030%=      5-min Rain = 0
KCL2 212039Z 13015KT 12/M05 A2989 RMK A01 T01231052  RH  029%=      5-min Rain = 0
KCL2 212040Z 12014KT 12/M05 A2988 RMK A01 T01231051  RH  029%=      5-min Rain = 0
KCL2 212041Z 12012KT 12/M05 A2988 RMK A01 T01231049  RH  030%=      5-min Rain = 0
KCL2 212042Z 12013KT 12/M04 A2988 RMK A01 T01241044  RH  031%=      5-min Rain = 0
KCL2 212043Z 12015KT 13/M04 A2988 RMK A01 T01261042  RH  031%=      5-min Rain = 0
KCL2 212044Z 12016KT 13/M04 A2988 RMK A01 T01261044  RH  030%=      5-min Rain = 0
KCL2 212045Z 13014KT 13/M04 A2987 RMK A01 T01251043  RH  031%=      5-min Rain = 0
KCL2 212046Z 13014KT 13/M04 A2988 RMK A01 T01251042  RH  031%=      5-min Rain = 0
KCL2 212047Z 13014KT 12/M04 A2988 RMK A01 T01241042  RH  031%=      5-min Rain = 0
KCL2 212048Z 13011KT 12/M04 A2987 RMK A01 T01241041  RH  031%=      5-min Rain = 0
KCL2 212049Z 14011G16KT 13/M04 A2987 RMK A01 T01261039  RH  032%=      5-min Rain = 0
KCL2 212050Z 14011G16KT 13/M04 A2987 RMK A01 T01291040  RH  031%=      5-min Rain = 0
KCL2 212051Z 14013KT 13/M05 A2987 RMK A01 T01311045  RH  029%=      5-min Rain = 0
KCL2 212052Z 13013KT 13/M04 A2988 RMK A01 T01301043  RH  030%=      5-min Rain = 0
KCL2 212053Z 13012KT 13/M04 A2987 RMK A01 T01321041  RH  030%=      5-min Rain = 0
KCL2 212054Z 13012KT 13/M04 A2988 RMK A01 T01311040  RH  030%=      5-min Rain = 0
KCL2 212055Z 13012KT 13/M04 A2988 RMK A01 T01301040  RH  030%=      5-min Rain = 0
KCL2 212056Z 13011KT 13/M04 A2988 RMK A01 T01301038  RH  031%=      5-min Rain = 0
KCL2 212057Z 13012KT 13/M04 A2988 RMK A01 T01321038  RH  030%=      5-min Rain = 0
KCL2 212058Z 14013KT 13/M04 A2988 RMK A01 T01311041  RH  030%=      5-min Rain = 0
KCL2 212059Z 14014KT 13/M04 A2988 RMK A01 T01301042  RH  030%=      5-min Rain = 0
KCL2 212100Z 14014KT 13/M04 A2987 RMK A01 T01291042  RH  030%=      5-min Rain = 0
KCL2 212101Z 14014KT 13/M04 A2987 RMK A01 T01281043  RH  030%=      5-min Rain = 0
KCL2 212102Z 14015KT 13/M05 A2987 RMK A01 T01271046  RH  030%=      5-min Rain = 0
KCL2 212103Z 13013KT 13/M05 A2987 RMK A01 T01261047  RH  029%=      5-min Rain = 0
KCL2 212104Z 12013KT 13/M04 A2987 RMK A01 T01271043  RH  030%=      5-min Rain = 0
KCL2 212105Z 14015KT 13/M04 A2987 RMK A01 T01291041  RH  030%=      5-min Rain = 0
KCL2 212106Z 13014KT 13/M04 A2986 RMK A01 T01301043  RH  030%=      5-min Rain = 0
KCL2 212107Z 12016KT 13/M04 A2986 RMK A01 T01301043  RH  030%=      5-min Rain = 0
KCL2 212108Z 11013KT 13/M04 A2986 RMK A01 T01301041  RH  030%=      5-min Rain = 0
KCL2 212109Z 11017G22KT 13/M04 A2986 RMK A01 T01321040  RH  030%=      5-min Rain = 0
KCL2 212110Z 12018KT 13/M05 A2986 RMK A01 T01321045  RH  029%=      5-min Rain = 0
KCL2 212111Z 13017G22KT 13/M05 A2986 RMK A01 T01311049  RH  028%=      5-min Rain = 0
KCL2 212112Z 13016KT 13/M05 A2986 RMK A01 T01301049  RH  028%=      5-min Rain = 0
KCL2 212113Z 13017KT 13/M05 A2986 RMK A01 T01291048  RH  029%=      5-min Rain = 0
KCL2 212114Z 13017KT 13/M05 A2986 RMK A01 T01291049  RH  028%=      5-min Rain = 0
KCL2 212115Z 13018KT 13/M05 A2986 RMK A01 T01291050  RH  028%=      5-min Rain = 0
KCL2 212116Z 12018KT 13/M05 A2986 RMK A01 T01271050  RH  029%=      5-min Rain = 0
KCL2 212117Z 12017KT 13/M05 A2986 RMK A01 T01261047  RH  029%=      5-min Rain = 0
KCL2 212118Z 13013KT 13/M05 A2986 RMK A01 T01261046  RH  030%=      5-min Rain = 0
KCL2 212119Z 14015G21KT 13/M05 A2986 RMK A01 T01251046  RH  030%=      5-min Rain = 0
KCL2 212120Z 14019KT 13/M05 A2986 RMK A01 T01251048  RH  029%=      5-min Rain = 0
KCL2 212121Z 12017KT 12/M05 A2985 RMK A01 T01241048  RH  030%=      5-min Rain = 0
KCL2 212122Z 12018KT 12/M05 A2985 RMK A01 T01231049  RH  030%=      5-min Rain = 0
KCL2 212123Z 13015KT 12/M05 A2985 RMK A01 T01231049  RH  030%=      5-min Rain = 0
KCL2 212124Z 12016KT 13/M05 A2985 RMK A01 T01251045  RH  030%=      5-min Rain = 0
KCL2 212125Z 12014KT 13/M04 A2985 RMK A01 T01251043  RH  031%=      5-min Rain = 0
KCL2 212126Z 13014KT 13/M04 A2985 RMK A01 T01261040  RH  031%=      5-min Rain = 0
KCL2 212127Z 14017KT 13/M04 A2985 RMK A01 T01271040  RH  031%=      5-min Rain = 0
KCL2 212128Z 14013KT 13/M04 A2985 RMK A01 T01261041  RH  031%=      5-min Rain = 0
KCL2 212129Z 11012KT 13/M04 A2985 RMK A01 T01271037  RH  032%=      5-min Rain = 0
KCL2 212130Z 11014KT 13/M03 A2985 RMK A01 T01291033  RH  032%=      5-min Rain = 0
KCL2 212131Z 11014KT 13/M03 A2985 RMK A01 T01291033  RH  032%=      5-min Rain = 0
KCL2 212132Z 11014KT 13/M04 A2986 RMK A01 T01291035  RH  032%=      5-min Rain = 0
KCL2 212133Z 12013G18KT 13/M03 A2986 RMK A01 T01291034  RH  032%=      5-min Rain = 0
KCL2 212134Z 11015G21KT 13/M04 A2986 RMK A01 T01291037  RH  031%=      5-min Rain = 0
KCL2 212135Z 12015G20KT 13/M04 A2986 RMK A01 T01261039  RH  031%=      5-min Rain = 0
KCL2 212136Z 14013KT 13/M04 A2986 RMK A01 T01251040  RH  031%=      5-min Rain = 0
KCL2 212137Z 14014KT 12/M04 A2986 RMK A01 T01241042  RH  031%=      5-min Rain = 0
KCL2 212138Z 13012KT 12/M04 A2986 RMK A01 T01231040  RH  032%=      5-min Rain = 0
KCL2 212139Z 13017KT 12/M04 A2986 RMK A01 T01241039  RH  032%=      5-min Rain = 0
KCL2 212140Z 12015KT 12/M04 A2986 RMK A01 T01241040  RH  032%=      5-min Rain = 0
KCL2 212141Z 12015KT 12/M04 A2986 RMK A01 T01241041  RH  031%=      5-min Rain = 0
KCL2 212142Z 13013G18KT 12/M04 A2986 RMK A01 T01241040  RH  032%=      5-min Rain = 0
KCL2 212143Z 13014KT 13/M04 A2986 RMK A01 T01251036  RH  032%=      5-min Rain = 0
KCL2 212144Z 12015KT 13/M04 A2986 RMK A01 T01261035  RH  032%=      5-min Rain = 0
KCL2 212145Z 12015KT 13/M04 A2986 RMK A01 T01261036  RH  032%=      5-min Rain = 0
KCL2 212146Z 11016G21KT 12/M04 A2986 RMK A01 T01241036  RH  033%=      5-min Rain = 0
KCL2 212147Z 13012G18KT 12/M03 A2986 RMK A01 T01241033  RH  033%=      5-min Rain = 0
KCL2 212148Z 13013KT 13/M03 A2986 RMK A01 T01261034  RH  033%=      5-min Rain = 0
KCL2 212149Z 12013KT 13/M03 A2986 RMK A01 T01271033  RH  033%=      5-min Rain = 0
KCL2 212150Z 12016KT 13/M03 A2986 RMK A01 T01281033  RH  032%=      5-min Rain = 0
KCL2 212151Z 12013KT 13/M04 A2986 RMK A01 T01261035  RH  032%=      5-min Rain = 0
KCL2 212152Z 11012KT 13/M03 A2986 RMK A01 T01251031  RH  034%=      5-min Rain = 0
KCL2 212153Z 11017KT 13/M03 A2986 RMK A01 T01251030  RH  034%=      5-min Rain = 0
KCL2 212154Z 11017KT 12/M03 A2986 RMK A01 T01211031  RH  034%=      5-min Rain = 0
KCL2 212155Z 12015G20KT 12/M03 A2986 RMK A01 T01191029  RH  035%=      5-min Rain = 0
KCL2 212156Z 12014KT 12/M03 A2986 RMK A01 T01191027  RH  036%=      5-min Rain = 0
KCL2 212157Z 12013KT 12/M03 A2986 RMK A01 T01201026  RH  036%=      5-min Rain = 0
KCL2 212158Z 11013G18KT 12/M03 A2986 RMK A01 T01211026  RH  036%=      5-min Rain = 0
KCL2 212159Z 11013KT 12/M02 A2986 RMK A01 T01211023  RH  036%=      5-min Rain = 0
KCL2 212200Z 11014KT 12/M02 A2986 RMK A01 T01221023  RH  036%=      5-min Rain = 0
KCL2 212201Z 12011KT 12/M02 A2986 RMK A01 T01211022  RH  037%=      5-min Rain = 0
KCL2 212202Z 12011G17KT 12/M02 A2986 RMK A01 T01211020  RH  037%=      5-min Rain = 0
KCL2 212203Z 12014KT 12/M02 A2986 RMK A01 T01231023  RH  036%=      5-min Rain = 0
KCL2 212204Z 13014KT 12/M02 A2986 RMK A01 T01221024  RH  036%=      5-min Rain = 0
KCL2 212205Z 13013KT 12/M02 A2986 RMK A01 T01221024  RH  036%=      5-min Rain = 0
KCL2 212206Z 13015KT 12/M02 A2986 RMK A01 T01231023  RH  036%=      5-min Rain = 0
KCL2 212207Z 13013KT 12/M02 A2986 RMK A01 T01241023  RH  036%=      5-min Rain = 0
KCL2 212208Z 13013KT 12/M02 A2986 RMK A01 T01241022  RH  036%=      5-min Rain = 0
KCL2 212209Z 12013KT 12/M02 A2986 RMK A01 T01231021  RH  037%=      5-min Rain = 0
KCL2 212210Z 11013KT 12/M02 A2986 RMK A01 T01231019  RH  037%=      5-min Rain = 0
KCL2 212211Z 10015KT 12/M02 A2986 RMK A01 T01231017  RH  038%=      5-min Rain = 0
KCL2 212212Z 12015KT 12/M02 A2986 RMK A01 T01211019  RH  038%=      5-min Rain = 0
KCL2 212213Z 12012G17KT 12/M02 A2987 RMK A01 T01201019  RH  038%=      5-min Rain = 0
KCL2 212214Z 12014KT 12/M02 A2987 RMK A01 T01211020  RH  038%=      5-min Rain = 0
KCL2 212215Z 12012KT 12/M02 A2987 RMK A01 T01201020  RH  037%=      5-min Rain = 0
KCL2 212216Z 12014G19KT 12/M02 A2987 RMK A01 T01201022  RH  037%=      5-min Rain = 0
KCL2 212217Z 12013KT 12/M02 A2987 RMK A01 T01201024  RH  036%=      5-min Rain = 0
KCL2 212218Z 12014KT 12/M02 A2987 RMK A01 T01201024  RH  037%=      5-min Rain = 0
KCL2 212219Z 11013KT 12/M02 A2987 RMK A01 T01201024  RH  036%=      5-min Rain = 0
KCL2 212220Z 12012KT 12/M02 A2987 RMK A01 T01201023  RH  037%=      5-min Rain = 0
KCL2 212221Z 12012KT 12/M02 A2987 RMK A01 T01211023  RH  037%=      5-min Rain = 0
KCL2 212222Z 12012KT 12/M02 A2987 RMK A01 T01211021  RH  037%=      5-min Rain = 0
KCL2 212223Z 12012G17KT 12/M02 A2988 RMK A01 T01201021  RH  037%=      5-min Rain = 0
KCL2 212224Z 12013KT 12/M02 A2988 RMK A01 T01201022  RH  037%=      5-min Rain = 0
KCL2 212225Z 11013KT 12/M02 A2988 RMK A01 T01201020  RH  038%=      5-min Rain = 0
KCL2 212226Z 11014KT 12/M02 A2988 RMK A01 T01201017  RH  039%=      5-min Rain = 0
KCL2 212227Z 11013KT 12/M02 A2988 RMK A01 T01191016  RH  039%=      5-min Rain = 0
KCL2 212228Z 11012KT 12/M02 A2988 RMK A01 T01191016  RH  039%=      5-min Rain = 0
KCL2 212229Z 12013KT 12/M02 A2988 RMK A01 T01191015  RH  039%=      5-min Rain = 0
KCL2 212230Z 12013KT 12/M02 A2988 RMK A01 T01191016  RH  039%=      5-min Rain = 0
KCL2 212231Z 13014KT 12/M02 A2988 RMK A01 T01181020  RH  038%=      5-min Rain = 0
KCL2 212232Z 12014KT 12/M02 A2988 RMK A01 T01181022  RH  038%=      5-min Rain = 0
KCL2 212233Z 13013KT 12/M02 A2988 RMK A01 T01171021  RH  038%=      5-min Rain = 0
KCL2 212234Z 13013KT 12/M02 A2988 RMK A01 T01181019  RH  038%=      5-min Rain = 0
KCL2 212235Z 14013KT 12/M02 A2987 RMK A01 T01181020  RH  038%=      5-min Rain = 0
KCL2 212236Z 13011KT 12/M02 A2987 RMK A01 T01191017  RH  039%=      5-min Rain = 0
KCL2 212237Z 12014KT 12/M02 A2987 RMK A01 T01191016  RH  039%=      5-min Rain = 0
KCL2 212238Z 11014KT 12/M02 A2987 RMK A01 T01191018  RH  039%=      5-min Rain = 0
KCL2 212239Z 11015KT 12/M02 A2987 RMK A01 T01201016  RH  039%=      5-min Rain = 0
KCL2 212240Z 11016KT 12/M02 A2987 RMK A01 T01191016  RH  039%=      5-min Rain = 0
KCL2 212241Z 11014KT 12/M01 A2987 RMK A01 T01201014  RH  039%=      5-min Rain = 0
KCL2 212242Z 12014KT 12/M01 A2987 RMK A01 T01191013  RH  040%=      5-min Rain = 0
KCL2 212243Z 12015KT 12/M01 A2987 RMK A01 T01191014  RH  040%=      5-min Rain = 0
KCL2 212244Z 12014KT 12/M02 A2987 RMK A01 T01171015  RH  040%=      5-min Rain = 0
KCL2 212245Z 12014KT 12/M01 A2987 RMK A01 T01151013  RH  041%=      5-min Rain = 0
KCL2 212246Z 12016KT 12/M02 A2987 RMK A01 T01151015  RH  041%=      5-min Rain = 0
KCL2 212247Z 13014KT 11/M02 A2987 RMK A01 T01141015  RH  041%=      5-min Rain = 0
KCL2 212248Z 13012KT 11/M02 A2987 RMK A01 T01141015  RH  041%=      5-min Rain = 0
KCL2 212249Z 12012G17KT 12/M01 A2987 RMK A01 T01151013  RH  041%=      5-min Rain = 0
KCL2 212250Z 13015KT 12/M01 A2987 RMK A01 T01161013  RH  041%=      5-min Rain = 0
KCL2 212251Z 13015KT 12/M02 A2987 RMK A01 T01161015  RH  040%=      5-min Rain = 0
KCL2 212252Z 13012KT 12/M02 A2987 RMK A01 T01151015  RH  041%=      5-min Rain = 0
KCL2 212253Z 11012KT 12/M01 A2987 RMK A01 T01151013  RH  041%=      5-min Rain = 0
KCL2 212254Z 11015KT 12/M01 A2987 RMK A01 T01151012  RH  041%=      5-min Rain = 0
KCL2 212255Z 12016KT 12/M01 A2987 RMK A01 T01151012  RH  041%=      5-min Rain = 0
KCL2 212256Z 12013KT 11/M01 A2987 RMK A01 T01141012  RH  041%=      5-min Rain = 0
KCL2 212257Z 12012G18KT 11/M01 A2987 RMK A01 T01141012  RH  042%=      5-min Rain = 0
KCL2 212258Z 13015KT 11/M01 A2987 RMK A01 T01141012  RH  042%=      5-min Rain = 0
KCL2 212259Z 12013KT 11/M01 A2987 RMK A01 T01141011  RH  042%=      5-min Rain = 0
KCL2 212300Z 12013KT 12/M01 A2987 RMK A01 T01161010  RH  042%=      5-min Rain = 0
KCL2 212301Z 12014KT 12/M01 A2987 RMK A01 T01171010  RH  041%=      5-min Rain = 0
KCL2 212302Z 12013KT 12/M01 A2987 RMK A01 T01161012  RH  041%=      5-min Rain = 0
KCL2 212303Z 11013KT 12/M01 A2987 RMK A01 T01151012  RH  041%=      5-min Rain = 0
KCL2 212304Z 11012KT 11/M01 A2987 RMK A01 T01141013  RH  041%=      5-min Rain = 0
KCL2 212305Z 11013KT 11/M01 A2987 RMK A01 T01131012  RH  042%=      5-min Rain = 0
KCL2 212306Z 11014KT 11/M01 A2987 RMK A01 T01131013  RH  041%=      5-min Rain = 0
KCL2 212307Z 11012KT 11/M01 A2987 RMK A01 T01131014  RH  041%=      5-min Rain = 0
KCL2 212308Z 11013KT 11/M02 A2987 RMK A01 T01121016  RH  041%=      5-min Rain = 0
KCL2 212309Z 11016KT 11/M02 A2987 RMK A01 T01121017  RH  041%=      5-min Rain = 0
KCL2 212310Z 12015KT 11/M02 A2987 RMK A01 T01111018  RH  041%=      5-min Rain = 0
KCL2 212311Z 12018KT 11/M02 A2987 RMK A01 T01111019  RH  040%=      5-min Rain = 0
KCL2 212312Z 13015G20KT 11/M02 A2987 RMK A01 T01101022  RH  040%=      5-min Rain = 0
KCL2 212313Z 13015KT 11/M02 A2987 RMK A01 T01101021  RH  040%=      5-min Rain = 0
KCL2 212314Z 14013KT 11/M02 A2987 RMK A01 T01101021  RH  040%=      5-min Rain = 0
KCL2 212315Z 13012KT 11/M02 A2987 RMK A01 T01101020  RH  040%=      5-min Rain = 0
KCL2 212316Z 13011KT 11/M02 A2987 RMK A01 T01101020  RH  040%=      5-min Rain = 0
KCL2 212317Z 13012KT 11/M02 A2987 RMK A01 T01101019  RH  041%=      5-min Rain = 0
KCL2 212318Z 13010KT 11/M02 A2987 RMK A01 T01111017  RH  041%=      5-min Rain = 0
KCL2 212319Z 13014KT 11/M02 A2987 RMK A01 T01111017  RH  041%=      5-min Rain = 0
KCL2 212320Z 12015KT 11/M02 A2987 RMK A01 T01111017  RH  041%=      5-min Rain = 0
KCL2 212321Z 12015KT 11/M02 A2987 RMK A01 T01101019  RH  041%=      5-min Rain = 0
KCL2 212322Z 12014KT 11/M02 A2987 RMK A01 T01101019  RH  041%=      5-min Rain = 0
KCL2 212323Z 13014KT 11/M02 A2987 RMK A01 T01091019  RH  041%=      5-min Rain = 0
KCL2 212324Z 12012KT 11/M02 A2987 RMK A01 T01091021  RH  040%=      5-min Rain = 0
KCL2 212325Z 12012KT 11/M02 A2987 RMK A01 T01081022  RH  040%=      5-min Rain = 0
KCL2 212326Z 13014KT 11/M02 A2987 RMK A01 T01071022  RH  040%=      5-min Rain = 0
KCL2 212327Z 13014KT 11/M02 A2987 RMK A01 T01061024  RH  040%=      5-min Rain = 0
KCL2 212328Z 13014KT 11/M03 A2987 RMK A01 T01061026  RH  040%=      5-min Rain = 0
KCL2 212329Z 12012KT 11/M03 A2987 RMK A01 T01061025  RH  040%=      5-min Rain = 0
KCL2 212330Z 13010KT 11/M02 A2987 RMK A01 T01051023  RH  041%=      5-min Rain = 0
KCL2 212331Z 13010KT 11/M02 A2987 RMK A01 T01051022  RH  041%=      5-min Rain = 0
KCL2 212332Z 12012KT 11/M02 A2988 RMK A01 T01051021  RH  042%=      5-min Rain = 0
KCL2 212333Z 12013KT 10/M02 A2988 RMK A01 T01041019  RH  042%=      5-min Rain = 0
KCL2 212334Z 12012KT 10/M02 A2987 RMK A01 T01041019  RH  042%=      5-min Rain = 0
KCL2 212335Z 12013KT 10/M02 A2988 RMK A01 T01041019  RH  042%=      5-min Rain = 0
KCL2 212336Z 12013KT 10/M02 A2988 RMK A01 T01031019  RH  043%=      5-min Rain = 0
KCL2 212337Z 13013KT 10/M02 A2988 RMK A01 T01021020  RH  042%=      5-min Rain = 0
KCL2 212338Z 12015KT 10/M02 A2988 RMK A01 T01021020  RH  042%=      5-min Rain = 0
KCL2 212339Z 12013KT 10/M02 A2988 RMK A01 T01021021  RH  042%=      5-min Rain = 0
KCL2 212340Z 12016KT 10/M02 A2988 RMK A01 T01011022  RH  042%=      5-min Rain = 0
KCL2 212341Z 12014KT 10/M02 A2988 RMK A01 T01011024  RH  041%=      5-min Rain = 0
KCL2 212342Z 13016KT 10/M02 A2987 RMK A01 T01021024  RH  041%=      5-min Rain = 0
KCL2 212343Z 12012KT 10/M02 A2987 RMK A01 T01021024  RH  041%=      5-min Rain = 0
KCL2 212344Z 13015KT 10/M02 A2987 RMK A01 T01011024  RH  041%=      5-min Rain = 0
KCL2 212345Z 13013KT 10/M02 A2987 RMK A01 T01011024  RH  041%=      5-min Rain = 0
KCL2 212346Z 13012KT 10/M02 A2987 RMK A01 T01011024  RH  042%=      5-min Rain = 0
KCL2 212347Z 13011KT 10/M02 A2987 RMK A01 T01011023  RH  042%=      5-min Rain = 0
KCL2 212348Z 12011KT 10/M02 A2987 RMK A01 T01011022  RH  042%=      5-min Rain = 0
KCL2 212349Z 12014KT 10/M02 A2987 RMK A01 T01001022  RH  042%=      5-min Rain = 0
KCL2 212350Z 11014KT 10/M02 A2987 RMK A01 T01001022  RH  042%=      5-min Rain = 0
KCL2 212351Z 12014KT 10/M02 A2987 RMK A01 T01011022  RH  042%=      5-min Rain = 0
KCL2 212352Z 11013KT 10/M02 A2987 RMK A01 T01011022  RH  042%=      5-min Rain = 0
KCL2 212353Z 12014KT 10/M02 A2987 RMK A01 T01001021  RH  043%=      5-min Rain = 0
KCL2 212354Z 12012KT 10/M02 A2987 RMK A01 T01001021  RH  043%=      5-min Rain = 0
KCL2 212355Z 12013KT 10/M02 A2987 RMK A01 T01001021  RH  043%=      5-min Rain = 0
KCL2 212356Z 12012KT 10/M02 A2987 RMK A01 T00991021  RH  043%=      5-min Rain = 0
KCL2 212357Z 12010KT 10/M02 A2987 RMK A01 T01001020  RH  043%=      5-min Rain = 0
KCL2 212358Z 12012KT 10/M02 A2987 RMK A01 T00991020  RH  043%=      5-min Rain = 0
KCL2 212359Z 12014KT 10/M02 A2987 RMK A01 T01001020  RH  043%=      5-min Rain = 0
KCL2 220000Z 12013KT 10/M02 A2987 RMK A01 T01001019  RH  043%=      5-min Rain = 0
KCL2 220001Z 12013KT 10/M02 A2987 RMK A01 T01001019  RH  043%=      5-min Rain = 0
KCL2 220002Z 12011KT 10/M02 A2987 RMK A01 T01001019  RH  043%=      5-min Rain = 0
KCL2 220003Z 12013KT 10/M02 A2987 RMK A01 T01001019  RH  043%=      5-min Rain = 0
KCL2 220004Z 12011KT 10/M02 A2987 RMK A01 T01001018  RH  044%=      5-min Rain = 0
KCL2 220005Z 12011KT 10/M02 A2987 RMK A01 T01001018  RH  044%=      5-min Rain = 0
KCL2 220006Z 12011KT 10/M02 A2987 RMK A01 T01001017  RH  044%=      5-min Rain = 0
KCL2 220007Z 12011KT 10/M02 A2987 RMK A01 T01001016  RH  044%=      5-min Rain = 0
KCL2 220008Z 12012KT 10/M02 A2988 RMK A01 T01001016  RH  044%=      5-min Rain = 0
KCL2 220009Z 12012KT 10/M02 A2988 RMK A01 T01001016  RH  045%=      5-min Rain = 0
KCL2 220010Z 12010KT 10/M02 A2988 RMK A01 T01001015  RH  045%=      5-min Rain = 0
KCL2 220011Z 12013KT 10/M02 A2988 RMK A01 T00991015  RH  045%=      5-min Rain = 0
KCL2 220012Z 12012KT 10/M02 A2988 RMK A01 T00991015  RH  045%=      5-min Rain = 0
KCL2 220013Z 12010KT 10/M01 A2987 RMK A01 T00991014  RH  045%=      5-min Rain = 0
KCL2 220014Z 11009KT 10/M01 A2987 RMK A01 T00981014  RH  045%=      5-min Rain = 0
KCL2 220015Z 12009KT 10/M01 A2987 RMK A01 T00981014  RH  046%=      5-min Rain = 0
KCL2 220016Z 12010KT 10/M01 A2987 RMK A01 T00981013  RH  046%=      5-min Rain = 0
KCL2 220017Z 11011KT 10/M01 A2987 RMK A01 T00971014  RH  046%=      5-min Rain = 0
KCL2 220018Z 12011KT 10/M01 A2987 RMK A01 T00971014  RH  046%=      5-min Rain = 0
KCL2 220019Z 12010KT 10/M01 A2987 RMK A01 T00971014  RH  046%=      5-min Rain = 0
KCL2 220020Z 11009KT 10/M01 A2987 RMK A01 T00971013  RH  046%=      5-min Rain = 0
KCL2 220021Z 11010KT 10/M01 A2987 RMK A01 T00961013  RH  047%=      5-min Rain = 0
KCL2 220022Z 11011KT 10/M01 A2987 RMK A01 T00951012  RH  047%=      5-min Rain = 0
KCL2 220023Z 11012KT 10/M01 A2987 RMK A01 T00951012  RH  047%=      5-min Rain = 0
KCL2 220024Z 11012KT 10/M01 A2987 RMK A01 T00951012  RH  047%=      5-min Rain = 0
KCL2 220025Z 11010KT 10/M01 A2987 RMK A01 T00951012  RH  047%=      5-min Rain = 0
KCL2 220026Z 12011KT 09/M01 A2987 RMK A01 T00941011  RH  048%=      5-min Rain = 0
KCL2 220027Z 11010KT 09/M01 A2987 RMK A01 T00941012  RH  048%=      5-min Rain = 0
KCL2 220028Z 12011KT 09/M01 A2987 RMK A01 T00941011  RH  048%=      5-min Rain = 0
KCL2 220029Z 12010KT 09/M01 A2987 RMK A01 T00931011  RH  048%=      5-min Rain = 0
KCL2 220030Z 12013KT 09/M01 A2988 RMK A01 T00931011  RH  048%=      5-min Rain = 0
KCL2 220031Z 12012KT 09/M01 A2988 RMK A01 T00931011  RH  048%=      5-min Rain = 0
KCL2 220032Z 12012KT 09/M01 A2988 RMK A01 T00931011  RH  048%=      5-min Rain = 0
KCL2 220033Z 12011KT 09/M01 A2988 RMK A01 T00931011  RH  048%=      5-min Rain = 0
KCL2 220034Z 12011KT 09/M01 A2988 RMK A01 T00931011  RH  048%=      5-min Rain = 0
KCL2 220035Z 12012KT 09/M01 A2988 RMK A01 T00931011  RH  048%=      5-min Rain = 0
KCL2 220036Z 12011KT 09/M01 A2988 RMK A01 T00931011  RH  048%=      5-min Rain = 0
KCL2 220037Z 12011KT 09/M01 A2988 RMK A01 T00921011  RH  048%=      5-min Rain = 0
KCL2 220038Z 12010KT 09/M01 A2988 RMK A01 T00921011  RH  049%=      5-min Rain = 0
KCL2 220039Z 12011KT 09/M01 A2988 RMK A01 T00921010  RH  049%=      5-min Rain = 0
KCL2 220040Z 12011KT 09/M01 A2988 RMK A01 T00921010  RH  049%=      5-min Rain = 0
KCL2 220041Z 12011KT 09/M01 A2988 RMK A01 T00911010  RH  049%=      5-min Rain = 0
KCL2 220042Z 12011KT 09/M01 A2988 RMK A01 T00911010  RH  049%=      5-min Rain = 0
KCL2 220043Z 12010KT 09/M01 A2988 RMK A01 T00911010  RH  049%=      5-min Rain = 0
KCL2 220044Z 12009KT 09/M01 A2988 RMK A01 T00911010  RH  049%=      5-min Rain = 0
KCL2 220045Z 12013KT 09/M01 A2988 RMK A01 T00901010  RH  050%=      5-min Rain = 0
KCL2 220046Z 12012KT 09/M01 A2988 RMK A01 T00901009  RH  050%=      5-min Rain = 0
KCL2 220047Z 12012KT 09/M01 A2989 RMK A01 T00901009  RH  050%=      5-min Rain = 0
KCL2 220048Z 12011KT 09/M01 A2989 RMK A01 T00901009  RH  050%=      5-min Rain = 0
KCL2 220049Z 12011KT 09/M01 A2989 RMK A01 T00901009  RH  050%=      5-min Rain = 0
KCL2 220050Z 12010KT 09/M01 A2988 RMK A01 T00901009  RH  050%=      5-min Rain = 0
KCL2 220051Z 12010KT 09/M01 A2988 RMK A01 T00891009  RH  050%=      5-min Rain = 0
KCL2 220052Z 12010KT 09/M01 A2988 RMK A01 T00891009  RH  050%=      5-min Rain = 0
KCL2 220053Z 12009KT 09/M01 A2988 RMK A01 T00891008  RH  051%=      5-min Rain = 0
KCL2 220054Z 12011KT 09/M01 A2988 RMK A01 T00881008  RH  051%=      5-min Rain = 0
KCL2 220055Z 12011KT 09/M01 A2988 RMK A01 T00881008  RH  051%=      5-min Rain = 0
KCL2 220056Z 12011KT 09/M01 A2988 RMK A01 T00881007  RH  051%=      5-min Rain = 0
KCL2 220057Z 12010KT 09/M01 A2988 RMK A01 T00881007  RH  051%=      5-min Rain = 0
KCL2 220058Z 12011KT 09/M01 A2988 RMK A01 T00881007  RH  051%=      5-min Rain = 0
KCL2 220059Z 12010KT 09/M01 A2988 RMK A01 T00881007  RH  051%=      5-min Rain = 0
KCL2 220100Z 12011KT 09/M01 A2988 RMK A01 T00881006  RH  052%=      5-min Rain = 0
KCL2 220101Z 12010KT 09/M01 A2988 RMK A01 T00871006  RH  052%=      5-min Rain = 0
KCL2 220102Z 12011KT 09/M01 A2989 RMK A01 T00871006  RH  052%=      5-min Rain = 0
KCL2 220103Z 12010KT 09/M01 A2989 RMK A01 T00871006  RH  052%=      5-min Rain = 0
KCL2 220104Z 12011KT 09/M01 A2989 RMK A01 T00871006  RH  052%=      5-min Rain = 0
KCL2 220105Z 12010KT 09/M01 A2989 RMK A01 T00871006  RH  052%=      5-min Rain = 0
KCL2 220106Z 12011KT 09/M01 A2989 RMK A01 T00871005  RH  052%=      5-min Rain = 0
KCL2 220107Z 12009KT 09/M01 A2989 RMK A01 T00871005  RH  053%=      5-min Rain = 0
KCL2 220108Z 12011KT 09/M01 A2989 RMK A01 T00861005  RH  053%=      5-min Rain = 0
KCL2 220109Z 12010KT 09/M01 A2989 RMK A01 T00861005  RH  053%=      5-min Rain = 0
KCL2 220110Z 12012KT 09/M01 A2989 RMK A01 T00861005  RH  053%=      5-min Rain = 0
KCL2 220111Z 12011KT 09/M01 A2989 RMK A01 T00861005  RH  053%=      5-min Rain = 0
KCL2 220112Z 12010KT 09/M01 A2989 RMK A01 T00871005  RH  053%=      5-min Rain = 0
KCL2 220113Z 12010KT 09/M00 A2989 RMK A01 T00871004  RH  053%=      5-min Rain = 0
KCL2 220114Z 12010KT 09/M00 A2989 RMK A01 T00861004  RH  053%=      5-min Rain = 0
KCL2 220115Z 12010KT 09/M00 A2989 RMK A01 T00861004  RH  053%=      5-min Rain = 0
KCL2 220116Z 12009KT 09/M00 A2989 RMK A01 T00861004  RH  053%=      5-min Rain = 0
KCL2 220117Z 11009KT 09/M00 A2989 RMK A01 T00851004  RH  054%=      5-min Rain = 0
KCL2 220118Z 12010KT 08/M00 A2989 RMK A01 T00841003  RH  054%=      5-min Rain = 0
KCL2 220119Z 12010KT 08/M00 A2989 RMK A01 T00841003  RH  054%=      5-min Rain = 0
KCL2 220120Z 12011KT 08/M00 A2989 RMK A01 T00841002  RH  055%=      5-min Rain = 0
KCL2 220121Z 12011KT 08/M00 A2989 RMK A01 T00841002  RH  055%=      5-min Rain = 0
KCL2 220122Z 12012KT 08/M00 A2989 RMK A01 T00841002  RH  055%=      5-min Rain = 0
KCL2 220123Z 12012KT 08/M00 A2989 RMK A01 T00841001  RH  055%=      5-min Rain = 0
KCL2 220124Z 12011KT 08/M00 A2989 RMK A01 T00841001  RH  055%=      5-min Rain = 0
KCL2 220125Z 12012KT 08/00 A2989 RMK A01 T008400-0  RH  055%=      5-min Rain = 0
KCL2 220126Z 12013KT 08/00 A2989 RMK A01 T008400-0  RH  056%=      5-min Rain = 0
KCL2 220127Z 12013KT 08/00 A2989 RMK A01 T00830000  RH  056%=      5-min Rain = 0
KCL2 220128Z 11013KT 08/00 A299 RMK A01 T00830000  RH  056%=      5-min Rain = 0
KCL2 220129Z 12013KT 08/00 A299 RMK A01 T00840001  RH  056%=      5-min Rain = 0
KCL2 220130Z 12010KT 08/00 A299 RMK A01 T00840001  RH  056%=      5-min Rain = 0
KCL2 220131Z 11011KT 08/00 A299 RMK A01 T00830002  RH  056%=      5-min Rain = 0
KCL2 220132Z 11012KT 08/00 A299 RMK A01 T00830002  RH  057%=      5-min Rain = 0
KCL2 220133Z 11009KT 08/00 A299 RMK A01 T00830002  RH  057%=      5-min Rain = 0
KCL2 220134Z 11010KT 08/00 A299 RMK A01 T00830003  RH  057%=      5-min Rain = 0
KCL2 220135Z 11011KT 08/00 A299 RMK A01 T00820003  RH  057%=      5-min Rain = 0
KCL2 220136Z 10010KT 08/00 A299 RMK A01 T00830004  RH  058%=      5-min Rain = 0
KCL2 220137Z 11013KT 08/00 A299 RMK A01 T00820004  RH  058%=      5-min Rain = 0
KCL2 220138Z 11011KT 08/01 A299 RMK A01 T00820005  RH  058%=      5-min Rain = 0
KCL2 220139Z 11009KT 08/00 A299 RMK A01 T00820004  RH  058%=      5-min Rain = 0
KCL2 220140Z 11011KT 08/00 A2991 RMK A01 T00810004  RH  058%=      5-min Rain = 0
KCL2 220141Z 11010KT 08/01 A2991 RMK A01 T00810005  RH  059%=      5-min Rain = 0
KCL2 220142Z 11011KT 08/01 A2991 RMK A01 T00810005  RH  059%=      5-min Rain = 0
KCL2 220143Z 11011KT 08/01 A2991 RMK A01 T00810005  RH  059%=      5-min Rain = 0
KCL2 220144Z 11010KT 08/01 A2991 RMK A01 T00810005  RH  059%=      5-min Rain = 0
KCL2 220145Z 10011KT 08/01 A2991 RMK A01 T00810005  RH  059%=      5-min Rain = 0
KCL2 220146Z 11010KT 08/01 A2991 RMK A01 T00810006  RH  059%=      5-min Rain = 0
KCL2 220147Z 11011KT 08/01 A2991 RMK A01 T00800006  RH  059%=      5-min Rain = 0
KCL2 220148Z 11011KT 08/01 A2991 RMK A01 T00800007  RH  060%=      5-min Rain = 0
KCL2 220149Z 11012KT 08/01 A2991 RMK A01 T00800007  RH  060%=      5-min Rain = 0
KCL2 220150Z 10012KT 08/01 A2991 RMK A01 T00800007  RH  060%=      5-min Rain = 0
KCL2 220151Z 11011KT 08/01 A2991 RMK A01 T00800007  RH  060%=      5-min Rain = 0
KCL2 220152Z 11012KT 08/01 A2991 RMK A01 T00810008  RH  060%=      5-min Rain = 0
KCL2 220153Z 11012KT 08/01 A2991 RMK A01 T00800008  RH  060%=      5-min Rain = 0
KCL2 220154Z 11011KT 08/01 A2991 RMK A01 T00800008  RH  060%=      5-min Rain = 0
KCL2 220155Z 11010KT 08/01 A2991 RMK A01 T00800008  RH  060%=      5-min Rain = 0
KCL2 220156Z 11010KT 08/01 A2991 RMK A01 T00800008  RH  060%=      5-min Rain = 0
KCL2 220157Z 11011KT 08/01 A2991 RMK A01 T00800008  RH  061%=      5-min Rain = 0
KCL2 220158Z 10012KT 08/01 A2991 RMK A01 T00790008  RH  061%=      5-min Rain = 0
KCL2 220159Z 11012KT 08/01 A2991 RMK A01 T00790008  RH  061%=      5-min Rain = 0
KCL2 220200Z 11012KT 08/01 A2991 RMK A01 T00790008  RH  061%=      5-min Rain = 0
KCL2 220201Z 11011KT 08/01 A2991 RMK A01 T00790008  RH  061%=      5-min Rain = 0
KCL2 220202Z 11010KT 08/01 A2991 RMK A01 T00790008  RH  061%=      5-min Rain = 0
KCL2 220203Z 11010KT 08/01 A2991 RMK A01 T00790009  RH  061%=      5-min Rain = 0
KCL2 220204Z 11011KT 08/01 A2991 RMK A01 T00780008  RH  061%=      5-min Rain = 0
KCL2 220205Z 10010KT 08/01 A2991 RMK A01 T00780009  RH  061%=      5-min Rain = 0
KCL2 220206Z 10010G15KT 08/01 A2991 RMK A01 T00780008  RH  061%=      5-min Rain = 0
KCL2 220207Z 10010KT 08/01 A2991 RMK A01 T00780008  RH  062%=      5-min Rain = 0
KCL2 220208Z 10010KT 08/01 A2991 RMK A01 T00770008  RH  062%=      5-min Rain = 0
KCL2 220209Z 11011KT 08/01 A2991 RMK A01 T00770008  RH  062%=      5-min Rain = 0
KCL2 220210Z 11011KT 08/01 A2991 RMK A01 T00770008  RH  062%=      5-min Rain = 0
KCL2 220211Z 10012KT 08/01 A2991 RMK A01 T00760008  RH  062%=      5-min Rain = 0
KCL2 220212Z 10009KT 08/01 A2991 RMK A01 T00770008  RH  062%=      5-min Rain = 0
KCL2 220213Z 11011KT 08/01 A2991 RMK A01 T00760008  RH  062%=      5-min Rain = 0
KCL2 220214Z 11011KT 08/01 A2991 RMK A01 T00760008  RH  062%=      5-min Rain = 0
KCL2 220215Z 11011KT 08/01 A2991 RMK A01 T00750007  RH  062%=      5-min Rain = 0
KCL2 220216Z 11010KT 08/01 A2991 RMK A01 T00750008  RH  062%=      5-min Rain = 0
KCL2 220217Z 10010KT 07/01 A2991 RMK A01 T00740007  RH  062%=      5-min Rain = 0
KCL2 220218Z 10009KT 07/01 A2991 RMK A01 T00740007  RH  063%=      5-min Rain = 0
KCL2 220219Z 10010KT 07/01 A2991 RMK A01 T00730008  RH  063%=      5-min Rain = 0
KCL2 220220Z 10009KT 07/01 A2991 RMK A01 T00730008  RH  063%=      5-min Rain = 0
KCL2 220221Z 10010KT 07/01 A2991 RMK A01 T00730008  RH  064%=      5-min Rain = 0
KCL2 220222Z 10010KT 07/01 A2991 RMK A01 T00720008  RH  064%=      5-min Rain = 0
KCL2 220223Z 10010KT 07/01 A2991 RMK A01 T00720009  RH  064%=      5-min Rain = 0
KCL2 220224Z 09009KT 07/01 A2991 RMK A01 T00720009  RH  064%=      5-min Rain = 0
KCL2 220225Z 10010KT 07/01 A2991 RMK A01 T00720009  RH  064%=      5-min Rain = 0
KCL2 220226Z 09009KT 07/01 A2991 RMK A01 T00720009  RH  064%=      5-min Rain = 0
KCL2 220227Z 10010KT 07/01 A2991 RMK A01 T00710010  RH  065%=      5-min Rain = 0
KCL2 220228Z 10010KT 07/01 A2991 RMK A01 T00710011  RH  065%=      5-min Rain = 0
KCL2 220229Z 10010KT 07/01 A2991 RMK A01 T00710011  RH  065%=      5-min Rain = 0
KCL2 220230Z 10010KT 07/01 A2991 RMK A01 T00710011  RH  066%=      5-min Rain = 0
KCL2 220231Z 10012KT 07/01 A2991 RMK A01 T00710012  RH  066%=      5-min Rain = 0
KCL2 220232Z 10011KT 07/01 A2991 RMK A01 T00710012  RH  066%=      5-min Rain = 0
KCL2 220233Z 10011KT 07/01 A2991 RMK A01 T00710013  RH  066%=      5-min Rain = 0
KCL2 220234Z 10011KT 07/01 A2991 RMK A01 T00700012  RH  067%=      5-min Rain = 0
KCL2 220235Z 10012KT 07/01 A2991 RMK A01 T00710013  RH  067%=      5-min Rain = 0
KCL2 220236Z 10012KT 07/01 A2991 RMK A01 T00700013  RH  067%=      5-min Rain = 0
KCL2 220237Z 10012KT 07/01 A2991 RMK A01 T00700013  RH  067%=      5-min Rain = 0
KCL2 220238Z 10012KT 07/01 A2991 RMK A01 T00710014  RH  067%=      5-min Rain = 0
KCL2 220239Z 10010KT 07/01 A2991 RMK A01 T00700014  RH  067%=      5-min Rain = 0
KCL2 220240Z 10011KT 07/01 A2991 RMK A01 T00700014  RH  067%=      5-min Rain = 0
KCL2 220241Z 10011KT 07/02 A2991 RMK A01 T00700015  RH  068%=      5-min Rain = 0
KCL2 220242Z 10010KT 07/02 A2991 RMK A01 T00700015  RH  068%=      5-min Rain = 0
KCL2 220243Z 10010KT 07/02 A2991 RMK A01 T00700015  RH  068%=      5-min Rain = 0
KCL2 220244Z 10011KT 07/02 A2991 RMK A01 T00690015  RH  068%=      5-min Rain = 0
KCL2 220245Z 10011KT 07/02 A2991 RMK A01 T00700015  RH  068%=      5-min Rain = 0
KCL2 220246Z 10011KT 07/02 A2991 RMK A01 T00700015  RH  068%=      5-min Rain = 0
KCL2 220247Z 10011KT 07/02 A2991 RMK A01 T00700015  RH  068%=      5-min Rain = 0
KCL2 220248Z 10011KT 07/02 A2991 RMK A01 T00690015  RH  068%=      5-min Rain = 0
KCL2 220249Z 10010KT 07/02 A2991 RMK A01 T00700016  RH  068%=      5-min Rain = 0
KCL2 220250Z 10011KT 07/02 A2991 RMK A01 T00690015  RH  069%=      5-min Rain = 0
KCL2 220251Z 10011KT 07/02 A2991 RMK A01 T00690015  RH  069%=      5-min Rain = 0
KCL2 220252Z 10011KT 07/02 A2991 RMK A01 T00690015  RH  069%=      5-min Rain = 0
KCL2 220253Z 10013KT 07/02 A2991 RMK A01 T00690015  RH  069%=      5-min Rain = 0
KCL2 220254Z 10012KT 07/02 A2991 RMK A01 T00690016  RH  069%=      5-min Rain = 0
KCL2 220255Z 11011KT 07/02 A2991 RMK A01 T00690016  RH  069%=      5-min Rain = 0
KCL2 220256Z 11012KT 07/02 A2991 RMK A01 T00690016  RH  069%=      5-min Rain = 0
KCL2 220257Z 10012KT 07/02 A2992 RMK A01 T00690016  RH  069%=      5-min Rain = 0
KCL2 220258Z 10013KT 07/02 A2992 RMK A01 T00680016  RH  070%=      5-min Rain = 0
KCL2 220259Z 11012KT 07/02 A2992 RMK A01 T00680017  RH  070%=      5-min Rain = 0
KCL2 220300Z 10011KT 07/02 A2992 RMK A01 T00680016  RH  069%=      5-min Rain = 0
KCL2 220301Z 10010KT 07/02 A2991 RMK A01 T00680016  RH  070%=      5-min Rain = 0
KCL2 220302Z 10009KT 07/02 A2991 RMK A01 T00670016  RH  070%=      5-min Rain = 0
KCL2 220303Z 10011KT 07/02 A2991 RMK A01 T00660016  RH  070%=      5-min Rain = 0
KCL2 220304Z 10010KT 07/02 A2991 RMK A01 T00660016  RH  070%=      5-min Rain = 0
KCL2 220305Z 10010KT 07/02 A2991 RMK A01 T00650015  RH  071%=      5-min Rain = 0
KCL2 220306Z 10011KT 07/02 A2991 RMK A01 T00650016  RH  071%=      5-min Rain = 0
KCL2 220307Z 10010KT 06/02 A2991 RMK A01 T00640016  RH  071%=      5-min Rain = 0
KCL2 220308Z 11010KT 06/02 A2991 RMK A01 T00640016  RH  071%=      5-min Rain = 0
KCL2 220309Z 10010KT 06/02 A2991 RMK A01 T00640016  RH  071%=      5-min Rain = 0
KCL2 220310Z 11011KT 06/02 A2991 RMK A01 T00640016  RH  071%=      5-min Rain = 0
KCL2 220311Z 10010KT 06/02 A2991 RMK A01 T00640017  RH  072%=      5-min Rain = 0
KCL2 220312Z 10008KT 06/02 A2991 RMK A01 T00640016  RH  071%=      5-min Rain = 0
KCL2 220313Z 10010KT 06/02 A2992 RMK A01 T00640016  RH  072%=      5-min Rain = 0
KCL2 220314Z 11009KT 06/02 A2992 RMK A01 T00640017  RH  072%=      5-min Rain = 0
KCL2 220315Z 10007KT 06/02 A2992 RMK A01 T00640017  RH  072%=      5-min Rain = 0
KCL2 220316Z 10008KT 06/02 A2992 RMK A01 T00630017  RH  072%=      5-min Rain = 0
KCL2 220317Z 10008KT 06/02 A2992 RMK A01 T00630017  RH  072%=      5-min Rain = 0
KCL2 220318Z 10009KT 06/02 A2992 RMK A01 T00620017  RH  072%=      5-min Rain = 0
KCL2 220319Z 10008KT 06/02 A2992 RMK A01 T00620017  RH  073%=      5-min Rain = 0
KCL2 220320Z 10010KT 06/02 A2992 RMK A01 T00620018  RH  073%=      5-min Rain = 0
KCL2 220321Z 10010KT 06/02 A2992 RMK A01 T00620018  RH  073%=      5-min Rain = 0
KCL2 220322Z 09009KT 06/02 A2992 RMK A01 T00620017  RH  073%=      5-min Rain = 0
KCL2 220323Z 10011KT 06/02 A2992 RMK A01 T00610018  RH  073%=      5-min Rain = 0
KCL2 220324Z 10010KT 06/02 A2992 RMK A01 T00610018  RH  074%=      5-min Rain = 0
KCL2 220325Z 10010KT 06/02 A2992 RMK A01 T00610018  RH  074%=      5-min Rain = 0
KCL2 220326Z 10011KT 06/02 A2992 RMK A01 T00610018  RH  074%=      5-min Rain = 0
KCL2 220327Z 10011KT 06/02 A2992 RMK A01 T00610018  RH  074%=      5-min Rain = 0
KCL2 220328Z 11011KT 06/02 A2992 RMK A01 T00610018  RH  074%=      5-min Rain = 0
KCL2 220329Z 10010KT 06/02 A2992 RMK A01 T00610018  RH  074%=      5-min Rain = 0
KCL2 220330Z 10010KT 06/02 A2992 RMK A01 T00610018  RH  074%=      5-min Rain = 0
KCL2 220331Z 11009KT 06/02 A2992 RMK A01 T00600018  RH  074%=      5-min Rain = 0
KCL2 220332Z 11010KT 06/02 A2993 RMK A01 T00600018  RH  074%=      5-min Rain = 0
KCL2 220333Z 10009KT 06/02 A2993 RMK A01 T00600018  RH  075%=      5-min Rain = 0
KCL2 220334Z 11011KT 06/02 A2993 RMK A01 T00590018  RH  075%=      5-min Rain = 0
KCL2 220335Z 10009KT 06/02 A2993 RMK A01 T00590019  RH  075%=      5-min Rain = 0
KCL2 220336Z 10010KT 06/02 A2993 RMK A01 T00590019  RH  075%=      5-min Rain = 0
KCL2 220337Z 10009KT 06/02 A2993 RMK A01 T00590019  RH  075%=      5-min Rain = 0
KCL2 220338Z 10009KT 06/02 A2994 RMK A01 T00590019  RH  075%=      5-min Rain = 0
KCL2 220339Z 10009KT 06/02 A2994 RMK A01 T00590019  RH  075%=      5-min Rain = 0
KCL2 220340Z 10008KT 06/02 A2994 RMK A01 T00590019  RH  076%=      5-min Rain = 0
KCL2 220341Z 10008KT 06/02 A2994 RMK A01 T00590019  RH  076%=      5-min Rain = 0
KCL2 220342Z 10008KT 06/02 A2994 RMK A01 T00590019  RH  076%=      5-min Rain = 0
KCL2 220343Z 10009KT 06/02 A2994 RMK A01 T00570018  RH  076%=      5-min Rain = 0
KCL2 220344Z 10009KT 06/02 A2994 RMK A01 T00570019  RH  076%=      5-min Rain = 0
KCL2 220345Z 10010KT 06/02 A2993 RMK A01 T00560019  RH  077%=      5-min Rain = 0
KCL2 220346Z 10010KT 06/02 A2993 RMK A01 T00560019  RH  077%=      5-min Rain = 0
KCL2 220347Z 10010KT 06/02 A2993 RMK A01 T00560019  RH  077%=      5-min Rain = 0
KCL2 220348Z 10009KT 06/02 A2993 RMK A01 T00560019  RH  077%=      5-min Rain = 0
KCL2 220349Z 10010KT 06/02 A2993 RMK A01 T00560019  RH  077%=      5-min Rain = 0
KCL2 220350Z 10010KT 06/02 A2993 RMK A01 T00560019  RH  077%=      5-min Rain = 0
KCL2 220351Z 10010KT 06/02 A2993 RMK A01 T00560020  RH  077%=      5-min Rain = 0
KCL2 220352Z 10010KT 06/02 A2993 RMK A01 T00570020  RH  077%=      5-min Rain = 0
KCL2 220353Z 10010KT 06/02 A2993 RMK A01 T00570020  RH  077%=      5-min Rain = 0
KCL2 220354Z 10010KT 06/02 A2993 RMK A01 T00570020  RH  077%=      5-min Rain = 0
KCL2 220355Z 10011KT 06/02 A2993 RMK A01 T00560019  RH  077%=      5-min Rain = 0
KCL2 220356Z 10010KT 06/02 A2993 RMK A01 T00560019  RH  077%=      5-min Rain = 0
KCL2 220357Z 10011KT 06/02 A2993 RMK A01 T00550019  RH  077%=      5-min Rain = 0
KCL2 220358Z 10011KT 06/02 A2992 RMK A01 T00550019  RH  078%=      5-min Rain = 0
KCL2 220359Z 10011KT 06/02 A2992 RMK A01 T00550019  RH  078%=      5-min Rain = 0
KCL2 220400Z 09010KT 06/02 A2992 RMK A01 T00550019  RH  078%=      5-min Rain = 0
KCL2 220401Z 10010KT 05/02 A2992 RMK A01 T00540019  RH  078%=      5-min Rain = 0
KCL2 220402Z 10010KT 05/02 A2992 RMK A01 T00540018  RH  078%=      5-min Rain = 0
KCL2 220403Z 10011KT 05/02 A2992 RMK A01 T00540019  RH  078%=      5-min Rain = 0
KCL2 220404Z 10011KT 05/02 A2992 RMK A01 T00540019  RH  078%=      5-min Rain = 0
KCL2 220405Z 11011KT 05/02 A2992 RMK A01 T00540019  RH  078%=      5-min Rain = 0
KCL2 220406Z 11011KT 05/02 A2992 RMK A01 T00540020  RH  078%=      5-min Rain = 0
KCL2 220407Z 10011KT 06/02 A2992 RMK A01 T00550020  RH  078%=      5-min Rain = 0
KCL2 220408Z 11011KT 06/02 A2992 RMK A01 T00550020  RH  078%=      5-min Rain = 0
KCL2 220409Z 11010KT 06/02 A2992 RMK A01 T00550020  RH  078%=      5-min Rain = 0
KCL2 220410Z 11010KT 06/02 A2992 RMK A01 T00550019  RH  078%=      5-min Rain = 0
KCL2 220411Z 11010KT 05/02 A2992 RMK A01 T00540019  RH  079%=      5-min Rain = 0
KCL2 220412Z 11010KT 05/02 A2992 RMK A01 T00530019  RH  079%=      5-min Rain = 0
KCL2 220413Z 10010KT 05/02 A2992 RMK A01 T00530020  RH  079%=      5-min Rain = 0
KCL2 220414Z 11010KT 05/02 A2992 RMK A01 T00530020  RH  079%=      5-min Rain = 0
KCL2 220415Z 10010KT 05/02 A2992 RMK A01 T00530020  RH  079%=      5-min Rain = 0
KCL2 220416Z 10009KT 05/02 A2993 RMK A01 T00530021  RH  079%=      5-min Rain = 0
KCL2 220417Z 10010KT 05/02 A2993 RMK A01 T00540021  RH  079%=      5-min Rain = 0
KCL2 220418Z 10011KT 05/02 A2992 RMK A01 T00530021  RH  079%=      5-min Rain = 0
KCL2 220419Z 10011KT 05/02 A2992 RMK A01 T00540021  RH  080%=      5-min Rain = 0
KCL2 220420Z 10010KT 05/02 A2992 RMK A01 T00540021  RH  080%=      5-min Rain = 0
KCL2 220421Z 10010KT 05/02 A2992 RMK A01 T00530021  RH  080%=      5-min Rain = 0
KCL2 220422Z 10011KT 05/02 A2992 RMK A01 T00540021  RH  080%=      5-min Rain = 0
KCL2 220423Z 10011KT 05/02 A2993 RMK A01 T00530021  RH  080%=      5-min Rain = 0
KCL2 220424Z 10010KT 05/02 A2993 RMK A01 T00540021  RH  080%=      5-min Rain = 0
KCL2 220425Z 10011KT 05/02 A2993 RMK A01 T00530021  RH  080%=      5-min Rain = 0
KCL2 220426Z 10010KT 05/02 A2993 RMK A01 T00530022  RH  080%=      5-min Rain = 0
KCL2 220427Z 10010KT 05/02 A2993 RMK A01 T00530021  RH  080%=      5-min Rain = 0
KCL2 220428Z 10009KT 05/02 A2993 RMK A01 T00530021  RH  080%=      5-min Rain = 0
KCL2 220429Z 10009KT 05/02 A2993 RMK A01 T00540021  RH  080%=      5-min Rain = 0
KCL2 220430Z 10009KT 05/02 A2993 RMK A01 T00520021  RH  080%=      5-min Rain = 0
KCL2 220431Z 10010KT 05/02 A2993 RMK A01 T00520021  RH  080%=      5-min Rain = 0
KCL2 220432Z 10009KT 05/02 A2993 RMK A01 T00520021  RH  081%=      5-min Rain = 0
KCL2 220433Z 11008KT 05/02 A2993 RMK A01 T00520021  RH  081%=      5-min Rain = 0
KCL2 220434Z 10009KT 05/02 A2994 RMK A01 T00510021  RH  081%=      5-min Rain = 0
KCL2 220435Z 11009KT 05/02 A2994 RMK A01 T00510021  RH  081%=      5-min Rain = 0
KCL2 220436Z 11009KT 05/02 A2994 RMK A01 T00510021  RH  081%=      5-min Rain = 0
KCL2 220437Z 11009KT 05/02 A2994 RMK A01 T00510021  RH  081%=      5-min Rain = 0
KCL2 220438Z 11009KT 05/02 A2994 RMK A01 T00510021  RH  081%=      5-min Rain = 0
KCL2 220439Z 11008KT 05/02 A2994 RMK A01 T00510021  RH  081%=      5-min Rain = 0
KCL2 220440Z 11008KT 05/02 A2994 RMK A01 T00500021  RH  081%=      5-min Rain = 0
KCL2 220441Z 10009KT 05/02 A2993 RMK A01 T00500020  RH  081%=      5-min Rain = 0
KCL2 220442Z 11010KT 05/02 A2994 RMK A01 T00490021  RH  082%=      5-min Rain = 0
KCL2 220443Z 11010KT 05/02 A2994 RMK A01 T00490021  RH  082%=      5-min Rain = 0
KCL2 220444Z 10010KT 05/02 A2994 RMK A01 T00500022  RH  082%=      5-min Rain = 0
KCL2 220445Z 10011KT 05/02 A2993 RMK A01 T00510023  RH  082%=      5-min Rain = 0
KCL2 220446Z 10011KT 05/02 A2993 RMK A01 T00510022  RH  082%=      5-min Rain = 0
KCL2 220447Z 10010KT 05/02 A2993 RMK A01 T00520023  RH  082%=      5-min Rain = 0
KCL2 220448Z 10010KT 05/02 A2993 RMK A01 T00520022  RH  081%=      5-min Rain = 0
KCL2 220449Z 11009KT 05/02 A2993 RMK A01 T00520022  RH  081%=      5-min Rain = 0
KCL2 220450Z 10009KT 05/02 A2994 RMK A01 T00520022  RH  081%=      5-min Rain = 0
KCL2 220451Z 10009KT 05/02 A2994 RMK A01 T00520023  RH  082%=      5-min Rain = 0
KCL2 220452Z 10010KT 05/02 A2994 RMK A01 T00520023  RH  082%=      5-min Rain = 0
KCL2 220453Z 10009KT 05/02 A2994 RMK A01 T00520024  RH  082%=      5-min Rain = 0
KCL2 220454Z 10009KT 05/02 A2994 RMK A01 T00520024  RH  082%=      5-min Rain = 0
KCL2 220455Z 10008KT 05/02 A2994 RMK A01 T00530024  RH  082%=      5-min Rain = 0
KCL2 220456Z 10009KT 05/03 A2994 RMK A01 T00530025  RH  082%=      5-min Rain = 0
KCL2 220457Z 09009KT 05/03 A2994 RMK A01 T00540025  RH  082%=      5-min Rain = 0
KCL2 220458Z 10010KT 05/03 A2994 RMK A01 T00540025  RH  081%=      5-min Rain = 0
KCL2 220459Z 10009KT 06/03 A2994 RMK A01 T00550025  RH  081%=      5-min Rain = 0
KCL2 220500Z 10010KT 06/03 A2994 RMK A01 T00550025  RH  081%=      5-min Rain = 0
KCL2 220501Z 10009KT 06/03 A2994 RMK A01 T00550025  RH  081%=      5-min Rain = 0
KCL2 220502Z 10009KT 06/03 A2994 RMK A01 T00560026  RH  081%=      5-min Rain = 0
KCL2 220503Z 10008KT 06/03 A2995 RMK A01 T00560026  RH  081%=      5-min Rain = 0
KCL2 220504Z 10008KT 06/03 A2995 RMK A01 T00570026  RH  081%=      5-min Rain = 0
KCL2 220505Z 10010KT 06/03 A2995 RMK A01 T00570027  RH  081%=      5-min Rain = 0
KCL2 220506Z 10010KT 06/03 A2995 RMK A01 T00580027  RH  080%=      5-min Rain = 0
KCL2 220507Z 10009KT 06/03 A2995 RMK A01 T00580027  RH  080%=      5-min Rain = 0
KCL2 220508Z 10010KT 06/03 A2995 RMK A01 T00580027  RH  080%=      5-min Rain = 0
KCL2 220509Z 10010KT 06/03 A2995 RMK A01 T00590027  RH  080%=      5-min Rain = 0
KCL2 220510Z 10011KT 06/03 A2995 RMK A01 T00590027  RH  080%=      5-min Rain = 0
KCL2 220511Z 11010KT 06/03 A2995 RMK A01 T00590027  RH  080%=      5-min Rain = 0
KCL2 220512Z 10011KT 06/03 A2995 RMK A01 T00590027  RH  080%=      5-min Rain = 0
KCL2 220513Z 11012KT 06/03 A2995 RMK A01 T00590027  RH  080%=      5-min Rain = 0
KCL2 220514Z 11011KT 06/03 A2995 RMK A01 T00590027  RH  080%=      5-min Rain = 0
KCL2 220515Z 10011KT 06/03 A2995 RMK A01 T00590027  RH  080%=      5-min Rain = 0
KCL2 220516Z 10011KT 06/03 A2995 RMK A01 T00590027  RH  080%=      5-min Rain = 0
KCL2 220517Z 11011KT 06/03 A2995 RMK A01 T00590027  RH  080%=      5-min Rain = 0
KCL2 220518Z 10012KT 06/03 A2995 RMK A01 T00590028  RH  080%=      5-min Rain = 0
KCL2 220519Z 10011KT 06/03 A2995 RMK A01 T00600028  RH  080%=      5-min Rain = 0
KCL2 220520Z 10011KT 06/03 A2995 RMK A01 T00600028  RH  080%=      5-min Rain = 0
KCL2 220521Z 10010KT 06/03 A2995 RMK A01 T00600028  RH  080%=      5-min Rain = 0
KCL2 220522Z 10011KT 06/03 A2995 RMK A01 T00600029  RH  080%=      5-min Rain = 0
KCL2 220523Z 10011KT 06/03 A2995 RMK A01 T00610029  RH  080%=      5-min Rain = 0
KCL2 220524Z 10012KT 06/03 A2995 RMK A01 T00610029  RH  080%=      5-min Rain = 0
KCL2 220525Z 10010KT 06/03 A2995 RMK A01 T00610029  RH  080%=      5-min Rain = 0
KCL2 220526Z 11011KT 06/03 A2994 RMK A01 T00620029  RH  080%=      5-min Rain = 0
KCL2 220527Z 10010KT 06/03 A2994 RMK A01 T00620029  RH  080%=      5-min Rain = 0
KCL2 220528Z 11011KT 06/03 A2994 RMK A01 T00620029  RH  080%=      5-min Rain = 0
KCL2 220529Z 11014KT 06/03 A2994 RMK A01 T00620030  RH  080%=      5-min Rain = 0
KCL2 220530Z 11011KT 06/03 A2994 RMK A01 T00620029  RH  079%=      5-min Rain = 0
KCL2 220531Z 10012KT 06/03 A2994 RMK A01 T00620030  RH  079%=      5-min Rain = 0
KCL2 220532Z 11009KT 06/03 A2994 RMK A01 T00630030  RH  079%=      5-min Rain = 0
KCL2 220533Z 11010KT 06/03 A2994 RMK A01 T00630030  RH  080%=      5-min Rain = 0
KCL2 220534Z 11012KT 06/03 A2994 RMK A01 T00630030  RH  080%=      5-min Rain = 0
KCL2 220535Z 11010KT 06/03 A2994 RMK A01 T00630030  RH  079%=      5-min Rain = 0
KCL2 220536Z 10010KT 06/03 A2994 RMK A01 T00630030  RH  079%=      5-min Rain = 0
KCL2 220537Z 10012KT 06/03 A2994 RMK A01 T00630030  RH  079%=      5-min Rain = 0
KCL2 220538Z 10009KT 06/03 A2994 RMK A01 T00630030  RH  079%=      5-min Rain = 0
KCL2 220539Z 11011KT 06/03 A2994 RMK A01 T00630030  RH  079%=      5-min Rain = 0
KCL2 220540Z 11011KT 06/03 A2994 RMK A01 T00630030  RH  079%=      5-min Rain = 0
KCL2 220541Z 11010KT 06/03 A2994 RMK A01 T00630030  RH  079%=      5-min Rain = 0
KCL2 220542Z 11011KT 06/03 A2994 RMK A01 T00630030  RH  079%=      5-min Rain = 0
KCL2 220543Z 11011KT 06/03 A2993 RMK A01 T00640030  RH  079%=      5-min Rain = 0
KCL2 220544Z 11011KT 06/03 A2993 RMK A01 T00640030  RH  079%=      5-min Rain = 0
KCL2 220545Z 10010KT 06/03 A2993 RMK A01 T00640030  RH  079%=      5-min Rain = 0
KCL2 220546Z 11011KT 06/03 A2993 RMK A01 T00630030  RH  079%=      5-min Rain = 0
KCL2 220547Z 10011KT 06/03 A2993 RMK A01 T00640031  RH  079%=      5-min Rain = 0
KCL2 220548Z 10009KT 06/03 A2993 RMK A01 T00640030  RH  079%=      5-min Rain = 0
KCL2 220549Z 10008KT 06/03 A2993 RMK A01 T00640030  RH  079%=      5-min Rain = 0
KCL2 220550Z 11010KT 06/03 A2994 RMK A01 T00640031  RH  079%=      5-min Rain = 0
KCL2 220551Z 10008KT 06/03 A2994 RMK A01 T00640031  RH  079%=      5-min Rain = 0
KCL2 220552Z 10009KT 06/03 A2994 RMK A01 T00640030  RH  079%=      5-min Rain = 0
KCL2 220553Z 10009KT 06/03 A2994 RMK A01 T00640030  RH  079%=      5-min Rain = 0
KCL2 220554Z 10010KT 06/03 A2994 RMK A01 T00640030  RH  079%=      5-min Rain = 0
KCL2 220555Z 11008KT 06/03 A2994 RMK A01 T00640031  RH  079%=      5-min Rain = 0
KCL2 220556Z 10010KT 06/03 A2994 RMK A01 T00640030  RH  079%=      5-min Rain = 0
KCL2 220557Z 10009KT 06/03 A2993 RMK A01 T00640031  RH  079%=      5-min Rain = 0
KCL2 220558Z 10009KT 06/03 A2993 RMK A01 T00640031  RH  079%=      5-min Rain = 0
KCL2 220559Z 11008KT 06/03 A2993 RMK A01 T00640030  RH  079%=      5-min Rain = 0

Page generated in 0.0362 seconds.